U2553 / G-EZRG 7700 Squawk Report (21st of November, 2017)

Aircraft A320 Reg No. G-EZRG Age 6 months old
Model A320 Jet engines 2 First flight 31-05-17
Registered 07-06-17 Rollout 05-17 Delivered 07-06-17
Construction No. 7693 Line No. N/A Series 214(SL)
ADSHEX 4072C1 Airline name EasyJet Owner N/A
Airfield based Luton~Beds~G First tracked 2017-06-08 10:59:03

Flight history for G-EZRG

Route Flight No Date Playback
???? U26418 2017-12-11 15:04:00
???? U26071 2017-12-11 11:53:00
Newcastle (NCL) - Bristol (BRS) U2565 2017-12-11 08:08:00
Belfast Intl (BFS) - Newcastle (NCL) U2554 2017-12-10 23:52:00
Newcastle (NCL) - Belfast Intl (BFS) U2553 2017-12-10 23:01:00
Bristol (BRS) - Newcastle (NCL) U2568 2017-12-10 20:52:00
Newcastle (NCL) - Bristol (BRS) U2567 2017-12-10 17:55:00
Bristol (BRS) - Newcastle (NCL) U2566 2017-12-10 16:08:00
Newcastle (NCL) - Bristol (BRS) U2565 2017-12-10 13:09:00
Belfast Intl (BFS) - Newcastle (NCL) U2548 2017-12-10 11:33:00
Newcastle (NCL) - Belfast Intl (BFS) U2547 2017-12-10 10:54:00
Tenerife Sur (TFS) - Newcastle (NCL) U26424 2017-12-10 00:29:00
Newcastle (NCL) - Tenerife Sur (TFS) U26423 2017-12-09 19:06:00
Alicante (ALC) - Newcastle (NCL) U26418 2017-12-09 14:35:00
Newcastle (NCL) - Alicante (ALC) U26417 2017-12-09 10:34:00
Barcelona (BCN) - Newcastle (NCL) U26402 2017-12-09 00:41:00
Newcastle (NCL) - Barcelona (BCN) U26401 2017-12-08 20:54:00
Belfast Intl (BFS) - Newcastle (NCL) U2550 2017-12-08 18:02:00
Newcastle (NCL) - Belfast Intl (BFS) U2549 2017-12-08 17:22:00
???? U26418 2017-12-08 13:47:00
Time Lat Lon Altitude Heading Speed Vertical Rate
2017-11-21 20:59:00 GMT 54.65759 -6.22448 0 84 18 0
2017-11-21 20:58:32 GMT 54.65701 -6.22798 0 2 18 0
2017-11-21 20:58:29 GMT 54.65679 -6.22798 0 345 20 0
2017-11-21 20:58:15 GMT 54.65559 -6.22729 0 340 18 0
2017-11-21 20:58:06 GMT 54.65492 -6.22662 0 292 16 0
2017-11-21 20:57:58 GMT 54.65488 -6.22571 0 247 17 0
2017-11-21 20:57:48 GMT 54.65535 -6.22384 0 244 45 0
2017-11-21 20:57:24 GMT 54.65817 -6.21335 0 244 92 0
2017-11-21 20:57:08 GMT 54.66165 -6.20033 775 246 125 -512
2017-11-21 20:57:06 GMT 54.66188 -6.19944 775 246 125 -576
2017-11-21 20:57:00 GMT 54.66334 -6.19411 850 246 125 -512
2017-11-21 20:56:57 GMT 54.66415 -6.19121 900 245 124 -640
2017-11-21 20:56:53 GMT 54.66508 -6.18772 925 246 124 -640
2017-11-21 20:56:47 GMT 54.66657 -6.18222 1,000 246 125 -768
2017-11-21 20:56:42 GMT 54.66774 -6.17779 1,050 246 125 -704
2017-11-21 20:56:36 GMT 54.66930 -6.17213 1,125 246 125 -704
2017-11-21 20:56:34 GMT 54.66988 -6.16990 1,150 245 124 -640
2017-11-21 20:56:28 GMT 54.67172 -6.16317 1,225 246 125 -576
2017-11-21 20:56:23 GMT 54.67250 -6.16026 1,250 246 125 -640
2017-11-21 20:56:15 GMT 54.67451 -6.15259 1,350 245 124 -640
2017-11-21 20:56:13 GMT 54.67486 -6.15134 1,375 246 125 -640
2017-11-21 20:56:04 GMT 54.67717 -6.14273 1,475 246 125 -768
2017-11-21 20:56:02 GMT 54.67754 -6.14136 1,500 246 125 -768
2017-11-21 20:55:56 GMT 54.67923 -6.13498 1,575 246 125 -640
2017-11-21 20:55:52 GMT 54.67998 -6.13229 1,600 246 125 -640
2017-11-21 20:55:45 GMT 54.68180 -6.12554 1,700 245 126 -768
2017-11-21 20:55:42 GMT 54.68240 -6.12330 1,725 245 126 -768
2017-11-21 20:55:36 GMT 54.68435 -6.11614 1,800 246 125 -640
2017-11-21 20:55:32 GMT 54.68486 -6.11413 1,825 246 125 -640
2017-11-21 20:55:24 GMT 54.68692 -6.10657 1,925 246 125 -640
2017-11-21 20:55:22 GMT 54.68738 -6.10482 1,950 245 126 -640
2017-11-21 20:55:16 GMT 54.68916 -6.09822 2,025 245 126 -704
2017-11-21 20:55:14 GMT 54.68929 -6.09766 2,025 245 126 -640
2017-11-21 20:55:12 GMT 54.68985 -6.09575 2,050 246 125 -640
2017-11-21 20:55:09 GMT 54.69072 -6.09256 2,075 246 125 -576
2017-11-21 20:55:05 GMT 54.69166 -6.08884 2,125 246 125 -512
2017-11-21 20:55:01 GMT 54.69246 -6.08593 2,150 246 126 -640
2017-11-21 20:54:53 GMT 54.69450 -6.07835 2,250 246 127 -704
2017-11-21 20:54:51 GMT 54.69492 -6.07685 2,275 246 127 -768
2017-11-21 20:54:44 GMT 54.69674 -6.07003 2,375 246 126 -768
2017-11-21 20:54:42 GMT 54.69731 -6.06776 2,400 246 126 -640
2017-11-21 20:54:34 GMT 54.69914 -6.06090 2,475 245 122 -384
2017-11-21 20:54:31 GMT 54.69978 -6.05847 2,475 246 122 -448
2017-11-21 20:54:26 GMT 54.70125 -6.05313 2,575 246 123 -960
2017-11-21 20:54:24 GMT 54.70163 -6.05172 2,600 246 124 -1024
2017-11-21 20:54:22 GMT 54.70226 -6.04935 2,625 246 125 -1088
2017-11-21 20:54:18 GMT 54.70316 -6.04589 2,700 246 126 -1024
2017-11-21 20:54:14 GMT 54.70404 -6.04264 2,750 246 127 -832
2017-11-21 20:54:11 GMT 54.70465 -6.04032 2,775 246 127 -704
2017-11-21 20:54:08 GMT 54.70560 -6.03683 2,825 246 127 -512
2017-11-21 20:54:03 GMT 54.70661 -6.03308 2,850 246 127 -448
2017-11-21 20:54:00 GMT 54.70735 -6.03033 2,875 246 127 -384
2017-11-21 20:53:57 GMT 54.70811 -6.02745 2,900 245 128 -448
2017-11-21 20:53:54 GMT 54.70912 -6.02375 2,925 246 128 -448
2017-11-21 20:53:52 GMT 54.70987 -6.02101 2,950 246 130 -320
2017-11-21 20:53:50 GMT 54.70987 -6.02101 2,950 246 129 -384
2017-11-21 20:53:48 GMT 54.71061 -6.01818 2,975 246 129 -448
2017-11-21 20:53:43 GMT 54.71173 -6.01393 3,000 246 131 -256
2017-11-21 20:53:40 GMT 54.71237 -6.01154 3,000 246 131 -256
2017-11-21 20:53:37 GMT 54.71324 -6.00831 3,000 246 132 0
2017-11-21 20:53:32 GMT 54.71447 -6.00361 3,025 246 133 -128
2017-11-21 20:53:30 GMT 54.71489 -6.00203 3,025 245 134 -128
2017-11-21 20:53:28 GMT 54.71585 -5.99845 3,025 246 135 -128
2017-11-21 20:53:23 GMT 54.71704 -5.99409 3,025 246 138 0
2017-11-21 20:53:21 GMT 54.71755 -5.99213 3,050 246 139 -128
2017-11-21 20:53:17 GMT 54.71851 -5.98852 3,025 246 144 384
2017-11-21 20:53:12 GMT 54.72025 -5.98206 3,000 246 153 0
2017-11-21 20:53:10 GMT 54.72039 -5.98156 3,000 246 152 0
2017-11-21 20:53:07 GMT 54.72148 -5.97737 3,025 246 154 0
2017-11-21 20:53:03 GMT 54.72276 -5.97257 3,000 246 158 64
2017-11-21 20:53:00 GMT 54.72349 -5.96978 3,000 246 161 0
2017-11-21 20:52:57 GMT 54.72441 -5.96630 3,000 245 165 64
2017-11-21 20:52:52 GMT 54.72630 -5.95942 3,000 246 170 -64
2017-11-21 20:52:50 GMT 54.72675 -5.95774 3,000 246 173 0
2017-11-21 20:52:47 GMT 54.72774 -5.95401 3,000 246 176 0
2017-11-21 20:52:41 GMT 54.72970 -5.94677 3,000 246 181 -64
2017-11-21 20:52:38 GMT 54.73067 -5.94294 3,000 246 183 -64
2017-11-21 20:52:35 GMT 54.73187 -5.93851 3,000 246 186 -64
2017-11-21 20:52:30 GMT 54.73357 -5.93213 3,025 246 189 -256
2017-11-21 20:52:26 GMT 54.73500 -5.92679 3,050 246 192 -320
2017-11-21 20:52:21 GMT 54.73714 -5.91872 3,075 246 196 -512
2017-11-21 20:52:16 GMT 54.73882 -5.91223 3,125 246 199 -576
2017-11-21 20:52:11 GMT 54.74106 -5.90382 3,175 246 203 -640
2017-11-21 20:52:06 GMT 54.74272 -5.89756 3,225 246 204 -640
2017-11-21 20:51:59 GMT 54.74562 -5.88659 3,300 246 208 -768
2017-11-21 20:51:56 GMT 54.74684 -5.88189 3,350 246 211 -832
2017-11-21 20:51:50 GMT 54.74925 -5.87294 3,425 245 215 -768
2017-11-21 20:51:46 GMT 54.75097 -5.86653 3,475 246 218 -704
2017-11-21 20:51:36 GMT 54.75522 -5.85046 3,625 246 223 -1216
2017-11-21 20:51:29 GMT 54.75819 -5.83923 3,800 246 224 -1664
2017-11-21 20:51:25 GMT 54.75961 -5.83390 3,900 246 224 -2048
2017-11-21 20:51:20 GMT 54.76261 -5.82275 4,125 246 225 -1664
2017-11-21 20:51:16 GMT 54.76401 -5.81742 4,200 246 225 -1664
2017-11-21 20:51:09 GMT 54.76694 -5.80636 4,425 246 225 -1984
2017-11-21 20:51:05 GMT 54.76845 -5.80054 4,550 246 224 -2048
2017-11-21 20:50:58 GMT 54.77136 -5.78955 4,750 246 224 -1792
2017-11-21 20:50:55 GMT 54.77294 -5.78347 4,875 246 225 -1792
2017-11-21 20:50:48 GMT 54.77577 -5.77283 5,075 246 225 -1792
2017-11-21 20:50:45 GMT 54.77718 -5.76766 5,175 246 225 -1600
2017-11-21 20:50:38 GMT 54.78011 -5.75650 5,325 246 227 -896
2017-11-21 20:50:34 GMT 54.78174 -5.75034 5,375 246 229 -1024
2017-11-21 20:50:29 GMT 54.78454 -5.73986 5,500 246 230 -1600
2017-11-21 20:50:25 GMT 54.78603 -5.73405 5,600 246 231 -1600
2017-11-21 20:50:22 GMT 54.78724 -5.72937 5,675 246 231 -1600
2017-11-21 20:50:18 GMT 54.78896 -5.72291 5,775 246 231 -1536
2017-11-21 20:50:14 GMT 54.79060 -5.71653 5,875 246 231 -1536
2017-11-21 20:50:07 GMT 54.79376 -5.70457 6,050 246 232 -1344
2017-11-21 20:50:05 GMT 54.79514 -5.69940 6,100 246 232 -1280
2017-11-21 20:50:02 GMT 54.79610 -5.69585 6,150 246 232 -1216
2017-11-21 20:49:57 GMT 54.79802 -5.68858 6,225 245 233 -1152
2017-11-21 20:49:54 GMT 54.79967 -5.68268 6,300 245 234 -1216
2017-11-21 20:49:51 GMT 54.80090 -5.67807 6,350 244 234 -1216
2017-11-21 20:49:48 GMT 54.80292 -5.67119 6,450 245 234 -1344
2017-11-21 20:49:44 GMT 54.80452 -5.66531 6,525 248 233 -1216
2017-11-21 20:49:37 GMT 54.80730 -5.65305 6,650 254 234 -1152
2017-11-21 20:49:34 GMT 54.80818 -5.64780 6,700 258 233 -1088
2017-11-21 20:49:31 GMT 54.80882 -5.64318 6,750 264 234 -1024
2017-11-21 20:49:27 GMT 54.80960 -5.63494 6,825 266 234 -1024
2017-11-21 20:49:24 GMT 54.80986 -5.62916 6,875 266 235 -960
2017-11-21 20:49:16 GMT 54.81070 -5.61551 7,000 252 236 -896
2017-11-21 20:49:13 GMT 54.81166 -5.60981 7,025 249 237 -640
2017-11-21 20:49:07 GMT 54.81491 -5.59648 7,075 244 241 -192
2017-11-21 20:49:03 GMT 54.81619 -5.59212 7,075 244 241 -256
2017-11-21 20:48:56 GMT 54.81963 -5.57984 7,125 244 242 -320
2017-11-21 20:48:54 GMT 54.82103 -5.57490 7,150 244 242 -320
2017-11-21 20:48:46 GMT 54.82480 -5.56158 7,175 245 242 -256
2017-11-21 20:48:43 GMT 54.82626 -5.55626 7,200 245 241 -256
2017-11-21 20:48:37 GMT 54.82904 -5.54651 7,225 245 240 -256
2017-11-21 20:48:35 GMT 54.82974 -5.54393 7,225 245 240 -320
2017-11-21 20:48:33 GMT 54.83090 -5.53977 7,250 245 240 -448
2017-11-21 20:48:30 GMT 54.83281 -5.53303 7,275 245 241 -704
2017-11-21 20:48:26 GMT 54.83482 -5.52580 7,325 245 243 -1088
2017-11-21 20:48:20 GMT 54.83739 -5.51651 7,450 245 243 -1280
2017-11-21 20:48:18 GMT 54.83840 -5.51289 7,525 244 241 -1984
2017-11-21 20:48:15 GMT 54.83965 -5.50856 7,600 245 242 -1984
2017-11-21 20:48:13 GMT 54.84091 -5.50398 7,675 244 241 -2048
2017-11-21 20:48:06 GMT 54.84467 -5.49074 7,925 244 239 -1920
2017-11-21 20:48:04 GMT 54.84491 -5.48975 7,950 244 239 -1920
2017-11-21 20:48:02 GMT 54.84590 -5.48622 8,025 244 239 -1920
2017-11-21 20:47:55 GMT 54.84961 -5.47297 8,275 247 238 -1920
2017-11-21 20:47:52 GMT 54.85062 -5.46917 8,325 247 237 -1920
2017-11-21 20:47:45 GMT 54.85382 -5.45439 8,625 255 236 -2112
2017-11-21 20:47:43 GMT 54.85451 -5.45035 8,700 258 236 -2048
2017-11-21 20:47:34 GMT 54.85604 -5.43582 8,950 263 237 -1792
2017-11-21 20:47:32 GMT 54.85638 -5.43193 9,000 263 238 -1728
2017-11-21 20:47:27 GMT 54.85712 -5.42248 9,150 263 239 -1728
2017-11-21 20:47:24 GMT 54.85767 -5.41576 9,250 263 240 -1728
2017-11-21 20:47:22 GMT 54.85786 -5.41293 9,300 263 240 -1728
2017-11-21 20:47:17 GMT 54.85854 -5.40439 9,425 263 242 -1728
2017-11-21 20:47:14 GMT 54.85907 -5.39778 9,525 263 243 -1472
2017-11-21 20:47:12 GMT 54.85936 -5.39388 9,575 263 243 -1472
2017-11-21 20:47:07 GMT 54.86009 -5.38430 9,675 263 245 -1408
2017-11-21 20:47:04 GMT 54.86064 -5.37724 9,775 263 246 -1408
2017-11-21 20:47:02 GMT 54.86087 -5.37409 9,800 263 247 -1472
2017-11-21 20:46:55 GMT 54.86188 -5.36149 9,975 263 248 -1600
2017-11-21 20:46:53 GMT 54.86223 -5.35650 10,050 263 249 -1664
2017-11-21 20:46:51 GMT 54.86247 -5.35341 10,075 263 249 -1728
2017-11-21 20:46:46 GMT 54.86326 -5.34343 10,250 263 249 -1856
2017-11-21 20:46:44 GMT 54.86385 -5.33604 10,350 262 249 -1856
2017-11-21 20:46:42 GMT 54.86400 -5.33411 10,375 262 249 -1856
2017-11-21 20:46:36 GMT 54.86485 -5.32376 10,550 262 249 -1792
2017-11-21 20:46:32 GMT 54.86572 -5.31391 10,675 262 249 -1664
2017-11-21 20:46:29 GMT 54.86623 -5.30761 10,775 262 249 -1664
2017-11-21 20:46:26 GMT 54.86661 -5.30357 10,825 262 249 -1600
2017-11-21 20:46:23 GMT 54.86714 -5.29694 10,925 262 249 -1536
2017-11-21 20:46:21 GMT 54.86751 -5.29315 10,950 262 249 -1472
2017-11-21 20:46:17 GMT 54.86829 -5.28394 11,075 262 249 -1344
2017-11-21 20:46:15 GMT 54.86847 -5.28192 11,100 262 249 -1280
2017-11-21 20:46:11 GMT 54.86920 -5.27344 11,175 262 250 -1088
2017-11-21 20:46:06 GMT 54.87015 -5.26220 11,275 262 253 -832
2017-11-21 20:46:01 GMT 54.87089 -5.25348 11,325 262 253 -768
2017-11-21 20:45:58 GMT 54.87135 -5.24807 11,350 263 257 -576
2017-11-21 20:45:55 GMT 54.87187 -5.24173 11,400 263 256 -640
2017-11-21 20:45:51 GMT 54.87252 -5.23357 11,425 263 257 -576
2017-11-21 20:45:45 GMT 54.87355 -5.22053 11,475 263 261 -384
2017-11-21 20:45:41 GMT 54.87415 -5.21285 11,500 263 264 -384
2017-11-21 20:45:39 GMT 54.87447 -5.20860 11,525 263 264 -384
2017-11-21 20:45:36 GMT 54.87503 -5.20103 11,550 263 267 -448
2017-11-21 20:45:34 GMT 54.87522 -5.19870 11,550 263 268 -448
2017-11-21 20:45:31 GMT 54.87592 -5.18888 11,600 263 271 -448
2017-11-21 20:45:30 GMT 54.87601 -5.18779 11,600 263 271 -448
2017-11-21 20:45:24 GMT 54.87685 -5.17606 11,650 263 275 -640
2017-11-21 20:45:20 GMT 54.87741 -5.16824 11,700 264 277 -832
2017-11-21 20:45:17 GMT 54.87790 -5.16083 11,750 264 280 -1664
2017-11-21 20:45:15 GMT 54.87822 -5.15614 11,800 264 279 -1408
2017-11-21 20:45:12 GMT 54.87853 -5.15159 11,850 264 280 -1792
2017-11-21 20:45:10 GMT 54.87891 -5.14621 11,900 264 280 -1728
2017-11-21 20:45:08 GMT 54.87941 -5.13944 12,000 264 280 -1792
2017-11-21 20:45:04 GMT 54.88001 -5.13070 12,125 263 281 -1728
2017-11-21 20:45:00 GMT 54.88057 -5.12312 12,200 263 282 -1664
2017-11-21 20:44:57 GMT 54.88099 -5.11730 12,275 263 282 -1728
2017-11-21 20:44:55 GMT 54.88150 -5.11031 12,375 263 282 -1856
2017-11-21 20:44:52 GMT 54.88193 -5.10485 12,450 263 282 -1984
2017-11-21 20:44:50 GMT 54.88238 -5.09903 12,550 263 282 -2112
2017-11-21 20:44:46 GMT 54.88303 -5.09119 12,675 262 282 -2176
2017-11-21 20:44:43 GMT 54.88353 -5.08530 12,775 262 283 -2176
2017-11-21 20:44:41 GMT 54.88397 -5.07984 12,850 262 283 -2176
2017-11-21 20:44:39 GMT 54.88431 -5.07617 12,925 262 283 -2176
2017-11-21 20:44:37 GMT 54.88458 -5.07302 12,975 262 283 -2112
2017-11-21 20:44:34 GMT 54.88532 -5.06461 13,100 262 284 -2112
2017-11-21 20:44:32 GMT 54.88559 -5.06114 13,150 262 284 -2112
2017-11-21 20:44:29 GMT 54.88621 -5.05404 13,250 262 284 -1984
2017-11-21 20:44:25 GMT 54.88692 -5.04579 13,375 262 284 -1856
2017-11-21 20:44:23 GMT 54.88760 -5.03788 13,475 263 285 -1472
2017-11-21 20:44:20 GMT 54.88797 -5.03324 13,525 263 286 -1344
2017-11-21 20:44:18 GMT 54.88824 -5.02980 13,550 263 286 -1280
2017-11-21 20:44:14 GMT 54.88898 -5.01881 13,650 265 287 -1024
2017-11-21 20:44:12 GMT 54.88918 -5.01551 13,675 266 287 -960
2017-11-21 20:44:08 GMT 54.88960 -5.00702 13,750 266 287 -1024
2017-11-21 20:44:05 GMT 54.88998 -4.99700 13,800 266 286 -960
2017-11-21 20:44:03 GMT 54.89007 -4.99487 13,825 266 286 -960
2017-11-21 20:44:00 GMT 54.89044 -4.98571 13,900 266 285 -960
2017-11-21 20:43:57 GMT 54.89063 -4.98180 13,925 266 285 -960
2017-11-21 20:43:54 GMT 54.89090 -4.97511 13,975 266 285 -960
2017-11-21 20:43:52 GMT 54.89104 -4.97075 14,000 266 285 -960
2017-11-21 20:43:49 GMT 54.89137 -4.96332 14,050 266 285 -1024
2017-11-21 20:43:47 GMT 54.89147 -4.95991 14,075 266 285 -960
2017-11-21 20:43:44 GMT 54.89184 -4.95076 14,125 266 285 -960
2017-11-21 20:43:41 GMT 54.89212 -4.94460 14,175 267 285 -960
2017-11-21 20:43:38 GMT 54.89241 -4.93650 14,225 267 286 -896
2017-11-21 20:43:34 GMT 54.89277 -4.92762 14,300 267 286 -896
2017-11-21 20:43:32 GMT 54.89287 -4.92438 14,325 267 286 -896
2017-11-21 20:43:29 GMT 54.89319 -4.91597 14,375 267 286 -960
2017-11-21 20:43:26 GMT 54.89342 -4.90992 14,425 267 286 -960
2017-11-21 20:43:24 GMT 54.89361 -4.90515 14,450 266 286 -960
2017-11-21 20:43:22 GMT 54.89374 -4.90160 14,475 266 286 -960
2017-11-21 20:43:19 GMT 54.89412 -4.89258 14,550 266 286 -1024
2017-11-21 20:43:17 GMT 54.89429 -4.88811 14,575 267 287 -1024
2017-11-21 20:43:13 GMT 54.89456 -4.88100 14,625 267 287 -1024
2017-11-21 20:43:10 GMT 54.89484 -4.87430 14,675 267 287 -1024
2017-11-21 20:43:08 GMT 54.89507 -4.86856 14,725 267 287 -1088
2017-11-21 20:43:06 GMT 54.89524 -4.86386 14,750 267 288 -1088
2017-11-21 20:43:04 GMT 54.89548 -4.85798 14,800 267 288 -1088
2017-11-21 20:43:02 GMT 54.89561 -4.85463 14,825 267 288 -1088
2017-11-21 20:43:00 GMT 54.89575 -4.85113 14,850 267 288 -1088
2017-11-21 20:42:58 GMT 54.89594 -4.84546 14,900 267 289 -1088
2017-11-21 20:42:56 GMT 54.89616 -4.83972 14,950 267 289 -1088
2017-11-21 20:42:56 GMT 54.89621 -4.83859 14,950 267 289 -1024
2017-11-21 20:42:52 GMT 54.89645 -4.83199 15,000 267 289 -1024
2017-11-21 20:42:50 GMT 54.89671 -4.82469 15,050 267 289 -960
2017-11-21 20:42:48 GMT 54.89682 -4.82225 15,075 267 289 -960
2017-11-21 20:42:44 GMT 54.89713 -4.81379 15,125 267 289 -896
2017-11-21 20:42:42 GMT 54.89731 -4.80870 15,150 267 289 -896
2017-11-21 20:42:40 GMT 54.89752 -4.80369 15,200 267 289 -896
2017-11-21 20:42:38 GMT 54.89775 -4.79770 15,225 267 289 -896
2017-11-21 20:42:34 GMT 54.89812 -4.78704 15,300 267 289 -960
2017-11-21 20:42:32 GMT 54.89817 -4.78588 15,300 267 289 -960
2017-11-21 20:42:30 GMT 54.89845 -4.77897 15,350 267 289 -960
2017-11-21 20:42:27 GMT 54.89863 -4.77431 15,400 267 289 -1024
2017-11-21 20:42:25 GMT 54.89882 -4.76912 15,425 267 289 -1024
2017-11-21 20:42:22 GMT 54.89900 -4.76403 15,450 267 289 -960
2017-11-21 20:42:19 GMT 54.89932 -4.75587 15,525 267 289 -960
2017-11-21 20:42:17 GMT 54.89957 -4.75001 15,550 267 290 -960
2017-11-21 20:42:14 GMT 54.89971 -4.74535 15,600 267 290 -960
2017-11-21 20:42:12 GMT 54.89999 -4.73902 15,625 267 290 -960
2017-11-21 20:42:10 GMT 54.90010 -4.73567 15,650 267 290 -960
2017-11-21 20:42:07 GMT 54.90042 -4.72663 15,725 267 290 -960
2017-11-21 20:42:04 GMT 54.90064 -4.72096 15,775 267 290 -1024
2017-11-21 20:42:02 GMT 54.90082 -4.71630 15,800 267 290 -960
2017-11-21 20:42:00 GMT 54.90097 -4.71128 15,850 267 290 -1024
2017-11-21 20:41:57 GMT 54.90129 -4.70323 15,900 267 290 -1024
2017-11-21 20:41:56 GMT 54.90129 -4.70323 15,900 267 290 -1024
2017-11-21 20:41:54 GMT 54.90147 -4.69765 15,950 267 290 -1024
2017-11-21 20:41:51 GMT 54.90180 -4.68842 16,025 267 289 -1088
2017-11-21 20:41:49 GMT 54.90184 -4.68712 16,025 267 289 -1024
2017-11-21 20:41:46 GMT 54.90213 -4.67893 16,075 267 289 -1088
2017-11-21 20:41:44 GMT 54.90231 -4.67360 16,125 267 289 -1088
2017-11-21 20:41:41 GMT 54.90250 -4.66827 16,175 267 289 -1088
2017-11-21 20:41:38 GMT 54.90282 -4.65995 16,250 267 289 -1088
2017-11-21 20:41:36 GMT 54.90299 -4.65538 16,275 267 288 -1024
2017-11-21 20:41:34 GMT 54.90310 -4.65179 16,300 267 288 -1024
2017-11-21 20:41:32 GMT 54.90331 -4.64568 16,350 267 288 -1024
2017-11-21 20:41:30 GMT 54.90343 -4.64214 16,375 267 288 -1024
2017-11-21 20:41:28 GMT 54.90367 -4.63583 16,425 267 287 -1024
2017-11-21 20:41:25 GMT 54.90385 -4.62977 16,475 267 287 -1024
2017-11-21 20:41:22 GMT 54.90408 -4.62300 16,525 267 287 -1024
2017-11-21 20:41:19 GMT 54.90431 -4.61668 16,550 267 287 -960
2017-11-21 20:41:17 GMT 54.90450 -4.61176 16,600 267 287 -960
2017-11-21 20:41:15 GMT 54.90464 -4.60710 16,625 267 287 -960
2017-11-21 20:41:13 GMT 54.90477 -4.60376 16,650 267 287 -960
2017-11-21 20:41:10 GMT 54.90501 -4.59561 16,700 267 287 -960
2017-11-21 20:41:07 GMT 54.90527 -4.58881 16,750 267 288 -1024
2017-11-21 20:41:05 GMT 54.90543 -4.58413 16,775 267 288 -1024
2017-11-21 20:41:02 GMT 54.90566 -4.57647 16,850 267 288 -1024
2017-11-21 20:40:59 GMT 54.90599 -4.56798 16,900 267 288 -1024
2017-11-21 20:40:58 GMT 54.90591 -4.56926 16,900 267 288 -1024
2017-11-21 20:40:55 GMT 54.90622 -4.56099 16,950 267 288 -1024
2017-11-21 20:40:53 GMT 54.90636 -4.55758 16,975 267 288 -960
2017-11-21 20:40:51 GMT 54.90655 -4.55165 17,025 267 289 -960
2017-11-21 20:40:49 GMT 54.90669 -4.54859 17,025 267 289 -960
2017-11-21 20:40:47 GMT 54.90692 -4.54268 17,075 267 289 -960
2017-11-21 20:40:45 GMT 54.90706 -4.53819 17,100 267 289 -960
2017-11-21 20:40:43 GMT 54.90729 -4.53261 17,150 267 289 -896
2017-11-21 20:40:40 GMT 54.90752 -4.52645 17,175 267 289 -896
2017-11-21 20:40:37 GMT 54.90774 -4.52047 17,225 267 289 -896
2017-11-21 20:40:35 GMT 54.90802 -4.51280 17,250 267 289 -832
2017-11-21 20:40:33 GMT 54.90811 -4.50981 17,275 267 289 -832
2017-11-21 20:40:30 GMT 54.90841 -4.50298 17,325 267 289 -832
2017-11-21 20:40:28 GMT 54.90855 -4.49832 17,350 267 289 -768
2017-11-21 20:40:26 GMT 54.90874 -4.49349 17,375 267 289 -768
2017-11-21 20:40:24 GMT 54.90889 -4.49010 17,400 267 289 -832
2017-11-21 20:40:22 GMT 54.90907 -4.48412 17,425 267 289 -832
2017-11-21 20:40:19 GMT 54.90930 -4.47868 17,450 267 289 -832
2017-11-21 20:40:17 GMT 54.90953 -4.47218 17,500 267 289 -896
2017-11-21 20:40:15 GMT 54.90971 -4.46711 17,525 267 289 -896
2017-11-21 20:40:13 GMT 54.90985 -4.46361 17,550 267 289 -896
2017-11-21 20:40:10 GMT 54.91003 -4.45794 17,575 267 289 -896
2017-11-21 20:40:08 GMT 54.91026 -4.45189 17,625 267 289 -960
2017-11-21 20:40:06 GMT 54.91046 -4.44713 17,650 267 290 -832
2017-11-21 20:40:04 GMT 54.91058 -4.44357 17,675 267 289 -960
2017-11-21 20:40:02 GMT 54.91069 -4.43997 17,700 267 289 -960
2017-11-21 20:39:58 GMT 54.91111 -4.42866 17,775 267 290 -960
2017-11-21 20:39:55 GMT 54.91136 -4.42176 17,825 267 290 -896
2017-11-21 20:39:53 GMT 54.91150 -4.41804 17,850 267 290 -896
2017-11-21 20:39:51 GMT 54.91168 -4.41319 17,875 267 290 -832
2017-11-21 20:39:49 GMT 54.91182 -4.40859 17,900 267 290 -768
2017-11-21 20:39:47 GMT 54.91204 -4.40310 17,925 267 290 -640
2017-11-21 20:39:45 GMT 54.91223 -4.39753 17,950 267 290 -512
2017-11-21 20:39:42 GMT 54.91242 -4.39287 17,975 267 289 -320
2017-11-21 20:39:38 GMT 54.91273 -4.38322 18,000 267 289 -64
2017-11-21 20:39:36 GMT 54.91288 -4.37988 18,000 267 289 0
2017-11-21 20:39:33 GMT 54.91319 -4.37005 18,000 267 289 0
2017-11-21 20:39:27 GMT 54.91370 -4.35616 18,000 267 289 0
2017-11-21 20:39:24 GMT 54.91388 -4.35010 18,000 267 289 0
2017-11-21 20:39:21 GMT 54.91414 -4.34401 18,000 267 289 0
2017-11-21 20:39:17 GMT 54.91446 -4.33402 18,000 267 289 0
2017-11-21 20:39:15 GMT 54.91457 -4.33063 18,000 267 289 0
2017-11-21 20:39:13 GMT 54.91479 -4.32470 18,000 267 289 0
2017-11-21 20:39:11 GMT 54.91489 -4.32094 18,000 267 289 0
2017-11-21 20:39:08 GMT 54.91516 -4.31327 18,000 267 289 0
2017-11-21 20:39:06 GMT 54.91535 -4.30764 18,000 267 289 0
2017-11-21 20:39:03 GMT 54.91553 -4.30181 18,000 267 289 0
2017-11-21 20:39:01 GMT 54.91566 -4.29848 18,000 267 289 0
2017-11-21 20:38:57 GMT 54.91600 -4.28908 18,000 267 290 0
2017-11-21 20:38:55 GMT 54.91626 -4.28014 18,000 267 290 64
2017-11-21 20:38:53 GMT 54.91631 -4.27918 18,000 267 290 0
2017-11-21 20:38:51 GMT 54.91649 -4.27433 18,000 267 290 64
2017-11-21 20:38:47 GMT 54.91674 -4.26586 18,000 267 290 64
2017-11-21 20:38:45 GMT 54.91704 -4.25809 18,000 267 291 0
2017-11-21 20:38:44 GMT 54.91708 -4.25664 18,000 267 291 0
2017-11-21 20:38:42 GMT 54.91721 -4.25213 18,000 267 291 0
2017-11-21 20:38:39 GMT 54.91740 -4.24759 18,000 267 291 0
2017-11-21 20:38:37 GMT 54.91758 -4.24189 18,000 267 291 0
2017-11-21 20:38:35 GMT 54.91777 -4.23598 18,000 267 292 -64
2017-11-21 20:38:33 GMT 54.91800 -4.22999 18,000 267 292 -64
2017-11-21 20:38:31 GMT 54.91805 -4.22757 18,000 267 292 -64
2017-11-21 20:38:28 GMT 54.91837 -4.21800 18,000 267 291 0
2017-11-21 20:38:26 GMT 54.91842 -4.21708 18,000 267 291 0
2017-11-21 20:38:23 GMT 54.91875 -4.20635 18,000 267 292 0
2017-11-21 20:38:21 GMT 54.91887 -4.20389 18,000 267 292 0
2017-11-21 20:38:18 GMT 54.91907 -4.19678 18,000 267 292 0
2017-11-21 20:38:15 GMT 54.91926 -4.19095 18,000 267 292 64
2017-11-21 20:38:13 GMT 54.91946 -4.18498 18,000 267 292 0
2017-11-21 20:38:10 GMT 54.91977 -4.17622 18,000 267 292 0
2017-11-21 20:38:08 GMT 54.91983 -4.17400 18,000 267 292 0
2017-11-21 20:38:06 GMT 54.91996 -4.17014 18,000 267 292 0
2017-11-21 20:38:04 GMT 54.92014 -4.16399 18,000 267 292 0
2017-11-21 20:38:01 GMT 54.92042 -4.15558 18,000 267 293 0
2017-11-21 20:37:59 GMT 54.92056 -4.15258 18,000 267 292 0
2017-11-21 20:37:56 GMT 54.92079 -4.14492 18,000 267 293 0
2017-11-21 20:37:53 GMT 54.92107 -4.13554 18,000 267 293 0
2017-11-21 20:37:50 GMT 54.92125 -4.13110 18,000 267 293 0
2017-11-21 20:37:48 GMT 54.92139 -4.12658 18,000 267 293 0
2017-11-21 20:37:46 GMT 54.92152 -4.12165 18,000 267 293 0
2017-11-21 20:37:44 GMT 54.92177 -4.11430 18,000 267 294 0
2017-11-21 20:37:44 GMT 54.92171 -4.11648 18,000 267 294 64
2017-11-21 20:37:41 GMT 54.92198 -4.10735 18,000 267 294 0
2017-11-21 20:37:37 GMT 54.92214 -4.10181 18,000 267 294 0
2017-11-21 20:37:35 GMT 54.92230 -4.09717 18,000 267 294 0
2017-11-21 20:37:33 GMT 54.92247 -4.09099 18,000 267 295 0
2017-11-21 20:37:30 GMT 54.92270 -4.08383 18,000 267 295 0
2017-11-21 20:37:28 GMT 54.92284 -4.07934 18,000 267 295 0
2017-11-21 20:37:26 GMT 54.92298 -4.07493 18,000 267 295 0
2017-11-21 20:37:24 GMT 54.92307 -4.07185 18,000 267 295 0
2017-11-21 20:37:22 GMT 54.92335 -4.06336 18,000 267 295 0
2017-11-21 20:37:20 GMT 54.92345 -4.05961 18,000 267 295 0
2017-11-21 20:37:18 GMT 54.92359 -4.05620 18,000 267 295 0
2017-11-21 20:37:15 GMT 54.92381 -4.04878 18,000 267 295 0
2017-11-21 20:37:11 GMT 54.92413 -4.03861 18,000 267 295 0
2017-11-21 20:37:09 GMT 54.92419 -4.03614 18,000 267 295 0
2017-11-21 20:37:06 GMT 54.92447 -4.02765 18,000 267 295 0
2017-11-21 20:37:04 GMT 54.92459 -4.02415 18,000 267 295 0
2017-11-21 20:37:02 GMT 54.92477 -4.01898 18,000 267 294 0
2017-11-21 20:37:00 GMT 54.92494 -4.01251 18,000 267 294 0
2017-11-21 20:36:57 GMT 54.92514 -4.00670 18,000 267 294 0
2017-11-21 20:36:54 GMT 54.92537 -3.99983 18,000 267 294 0
2017-11-21 20:36:52 GMT 54.92563 -3.99145 18,000 267 294 0
2017-11-21 20:36:49 GMT 54.92574 -3.98788 18,000 267 294 0
2017-11-21 20:36:46 GMT 54.92601 -3.97996 18,000 267 294 0
2017-11-21 20:36:42 GMT 54.92629 -3.97023 18,000 267 294 0
2017-11-21 20:36:38 GMT 54.92657 -3.96199 18,000 267 294 0
2017-11-21 20:36:35 GMT 54.92680 -3.95491 18,000 267 294 0
2017-11-21 20:36:32 GMT 54.92711 -3.94466 18,000 267 294 0
2017-11-21 20:36:30 GMT 54.92731 -3.93868 18,000 267 295 0
2017-11-21 20:36:28 GMT 54.92734 -3.93763 18,000 267 295 0
2017-11-21 20:36:25 GMT 54.92754 -3.93161 18,000 267 295 0
2017-11-21 20:36:23 GMT 54.92766 -3.92672 18,000 267 295 0
2017-11-21 20:36:21 GMT 54.92784 -3.92204 18,000 267 296 0
2017-11-21 20:36:19 GMT 54.92796 -3.91696 18,000 267 296 0
2017-11-21 20:36:17 GMT 54.92812 -3.91275 18,000 267 296 0
2017-11-21 20:36:14 GMT 54.92829 -3.90647 18,000 267 297 0
2017-11-21 20:36:11 GMT 54.92862 -3.89683 18,000 267 297 0
2017-11-21 20:36:08 GMT 54.92885 -3.88948 18,000 267 298 0
2017-11-21 20:36:04 GMT 54.92908 -3.88217 18,000 267 298 0
2017-11-21 20:36:01 GMT 54.92935 -3.87325 18,000 267 298 0
2017-11-21 20:35:59 GMT 54.92954 -3.86703 18,000 267 298 0
2017-11-21 20:35:57 GMT 54.92963 -3.86347 18,000 267 298 0
2017-11-21 20:35:55 GMT 54.92976 -3.85968 18,000 267 298 0
2017-11-21 20:35:52 GMT 54.92992 -3.85354 18,000 267 298 0
2017-11-21 20:35:49 GMT 54.93018 -3.84505 18,000 267 298 0
2017-11-21 20:35:47 GMT 54.93029 -3.84139 18,000 267 298 0
2017-11-21 20:35:44 GMT 54.93054 -3.83285 18,000 267 298 0
2017-11-21 20:35:40 GMT 54.93085 -3.82374 18,000 267 297 0
2017-11-21 20:35:38 GMT 54.93100 -3.81904 18,000 267 297 0
2017-11-21 20:35:36 GMT 54.93109 -3.81524 18,000 267 297 0
2017-11-21 20:35:34 GMT 54.93132 -3.80789 18,000 267 297 64
2017-11-21 20:35:32 GMT 54.93141 -3.80547 18,000 267 297 64
2017-11-21 20:35:30 GMT 54.93155 -3.79986 18,000 268 297 64
2017-11-21 20:35:28 GMT 54.93173 -3.79400 18,000 268 297 64
2017-11-21 20:35:26 GMT 54.93178 -3.79287 18,000 268 297 64
2017-11-21 20:35:24 GMT 54.93201 -3.78412 18,000 268 297 0
2017-11-21 20:35:22 GMT 54.93211 -3.78079 18,000 268 297 0
2017-11-21 20:35:19 GMT 54.93228 -3.77494 18,000 268 297 0
2017-11-21 20:35:17 GMT 54.93256 -3.76589 18,000 268 297 0
2017-11-21 20:35:16 GMT 54.93256 -3.76589 18,000 268 297 0
2017-11-21 20:35:12 GMT 54.93276 -3.75866 18,000 268 297 0
2017-11-21 20:35:10 GMT 54.93299 -3.75033 18,000 268 297 0
2017-11-21 20:35:08 GMT 54.93306 -3.74900 18,000 268 297 0
2017-11-21 20:35:06 GMT 54.93322 -3.74268 18,000 268 297 0
2017-11-21 20:35:04 GMT 54.93341 -3.73652 18,000 268 296 64
2017-11-21 20:35:00 GMT 54.93370 -3.72639 18,000 268 296 64
2017-11-21 20:34:58 GMT 54.93388 -3.72054 18,000 268 296 64
2017-11-21 20:34:56 GMT 54.93397 -3.71669 18,000 268 296 64
2017-11-21 20:34:54 GMT 54.93411 -3.71296 18,000 268 295 64
2017-11-21 20:34:51 GMT 54.93429 -3.70655 18,000 268 295 64
2017-11-21 20:34:49 GMT 54.93443 -3.70181 18,000 268 295 64
2017-11-21 20:34:46 GMT 54.93471 -3.69254 18,000 268 295 0
2017-11-21 20:34:43 GMT 54.93481 -3.68791 18,000 268 295 0
2017-11-21 20:34:40 GMT 54.93499 -3.68175 18,000 268 296 64
2017-11-21 20:34:38 GMT 54.93523 -3.67368 18,000 268 296 0
2017-11-21 20:34:36 GMT 54.93532 -3.67135 18,000 268 296 0
2017-11-21 20:34:34 GMT 54.93558 -3.66168 18,000 268 296 -64
2017-11-21 20:34:30 GMT 54.93569 -3.65687 18,000 268 295 -64
2017-11-21 20:34:28 GMT 54.93585 -3.65223 18,000 268 295 -64
2017-11-21 20:34:25 GMT 54.93613 -3.64302 18,000 268 295 0
2017-11-21 20:34:22 GMT 54.93631 -3.63591 18,000 268 295 0
2017-11-21 20:34:20 GMT 54.93639 -3.63340 18,000 268 295 0
2017-11-21 20:34:18 GMT 54.93648 -3.62898 18,000 268 294 0
2017-11-21 20:34:16 GMT 54.93658 -3.62525 18,000 268 293 0
2017-11-21 20:34:14 GMT 54.93676 -3.61900 18,000 268 293 0
2017-11-21 20:34:12 GMT 54.93690 -3.61409 18,000 268 293 0
2017-11-21 20:34:10 GMT 54.93699 -3.61076 18,000 268 293 0
2017-11-21 20:34:08 GMT 54.93718 -3.60457 18,000 268 293 0
2017-11-21 20:34:06 GMT 54.93732 -3.59902 18,000 268 293 0
2017-11-21 20:34:04 GMT 54.93741 -3.59644 18,000 268 293 0
2017-11-21 20:34:02 GMT 54.93759 -3.58930 18,000 268 293 0
2017-11-21 20:33:59 GMT 54.93779 -3.58354 18,000 268 293 -64
2017-11-21 20:33:57 GMT 54.93791 -3.57847 18,000 268 293 -64
2017-11-21 20:33:55 GMT 54.93805 -3.57314 18,000 268 293 0
2017-11-21 20:33:50 GMT 54.93832 -3.56256 18,000 268 293 -64
2017-11-21 20:33:48 GMT 54.93846 -3.55787 18,000 268 292 -64
2017-11-21 20:33:46 GMT 54.93860 -3.55408 18,000 268 292 -64
2017-11-21 20:33:44 GMT 54.93874 -3.54802 18,000 268 292 -64
2017-11-21 20:33:40 GMT 54.93897 -3.53978 18,000 268 292 0
2017-11-21 20:33:38 GMT 54.93909 -3.53618 18,000 268 292 0
2017-11-21 20:33:36 GMT 54.93919 -3.53138 18,000 268 292 0
2017-11-21 20:33:36 GMT 54.93924 -3.53017 18,000 268 292 0
2017-11-21 20:33:34 GMT 54.93937 -3.52611 18,000 268 292 0
2017-11-21 20:33:32 GMT 54.93946 -3.52120 18,000 268 292 0
2017-11-21 20:33:29 GMT 54.93965 -3.51433 18,000 268 292 0
2017-11-21 20:33:27 GMT 54.93988 -3.50697 18,000 268 292 0
2017-11-21 20:33:24 GMT 54.94006 -3.50003 18,000 268 292 0
2017-11-21 20:33:20 GMT 54.94025 -3.49325 18,000 268 292 0
2017-11-21 20:33:18 GMT 54.94035 -3.48982 18,000 268 292 0
2017-11-21 20:33:16 GMT 54.94049 -3.48375 18,000 268 293 0
2017-11-21 20:33:14 GMT 54.94066 -3.47798 18,000 268 293 0
2017-11-21 20:33:12 GMT 54.94070 -3.47540 18,000 268 293 0
2017-11-21 20:33:09 GMT 54.94095 -3.46660 18,000 268 293 0
2017-11-21 20:33:06 GMT 54.94107 -3.46110 18,000 268 293 0
2017-11-21 20:33:04 GMT 54.94123 -3.45487 18,000 268 293 0
2017-11-21 20:33:02 GMT 54.94132 -3.45154 18,000 268 293 0
2017-11-21 20:32:59 GMT 54.94157 -3.44300 18,000 268 294 0
2017-11-21 20:32:56 GMT 54.94171 -3.43686 18,000 268 294 0
2017-11-21 20:32:53 GMT 54.94193 -3.42923 18,000 268 294 0
2017-11-21 20:32:53 GMT 54.94193 -3.42923 18,000 268 295 0
2017-11-21 20:32:51 GMT 54.94202 -3.42549 18,000 268 294 0
2017-11-21 20:32:49 GMT 54.94217 -3.41941 18,000 268 295 0
2017-11-21 20:32:47 GMT 54.94230 -3.41458 18,000 268 295 0
2017-11-21 20:32:45 GMT 54.94240 -3.41093 18,000 268 295 0
2017-11-21 20:32:43 GMT 54.94253 -3.40544 18,000 268 295 0
2017-11-21 20:32:41 GMT 54.94263 -3.40213 18,000 268 295 0
2017-11-21 20:32:38 GMT 54.94286 -3.39378 18,000 268 296 0
2017-11-21 20:32:36 GMT 54.94300 -3.38953 18,000 268 296 0
2017-11-21 20:32:34 GMT 54.94309 -3.38581 18,000 268 296 0
2017-11-21 20:32:32 GMT 54.94327 -3.37846 18,000 268 296 0
2017-11-21 20:32:30 GMT 54.94342 -3.37380 18,000 268 296 0
2017-11-21 20:32:26 GMT 54.94365 -3.36431 18,000 268 296 0
2017-11-21 20:32:26 GMT 54.94365 -3.36431 18,000 268 296 0
2017-11-21 20:32:24 GMT 54.94374 -3.36082 18,000 268 296 0
2017-11-21 20:32:22 GMT 54.94384 -3.35699 18,000 268 296 0
2017-11-21 20:32:19 GMT 54.94416 -3.34625 18,000 268 296 0
2017-11-21 20:32:16 GMT 54.94421 -3.34301 18,000 268 296 0
2017-11-21 20:32:14 GMT 54.94440 -3.33726 18,000 268 296 0
2017-11-21 20:32:12 GMT 54.94454 -3.33252 18,000 268 296 0
2017-11-21 20:32:10 GMT 54.94459 -3.32910 18,000 268 296 0
2017-11-21 20:32:06 GMT 54.94496 -3.31674 18,000 268 295 0
2017-11-21 20:32:04 GMT 54.94505 -3.31304 18,000 268 295 -64
2017-11-21 20:32:01 GMT 54.94533 -3.30314 18,000 268 295 0
2017-11-21 20:31:57 GMT 54.94551 -3.29648 18,000 268 295 0
2017-11-21 20:31:55 GMT 54.94561 -3.29174 18,000 268 295 0
2017-11-21 20:31:52 GMT 54.94579 -3.28556 18,000 268 295 0
2017-11-21 20:31:50 GMT 54.94592 -3.27958 18,000 268 294 0
2017-11-21 20:31:46 GMT 54.94621 -3.26910 18,000 268 294 -64
2017-11-21 20:31:44 GMT 54.94631 -3.26602 18,000 268 294 -64
2017-11-21 20:31:42 GMT 54.94647 -3.25858 18,000 268 294 0
2017-11-21 20:31:40 GMT 54.94663 -3.25378 18,000 268 294 0
2017-11-21 20:31:37 GMT 54.94677 -3.24671 18,000 268 294 0
2017-11-21 20:31:36 GMT 54.94675 -3.24800 18,000 268 294 0
2017-11-21 20:31:36 GMT 54.94677 -3.24671 18,000 268 294 0
2017-11-21 20:31:34 GMT 54.94693 -3.24089 18,000 268 295 64
2017-11-21 20:31:32 GMT 54.94705 -3.23697 18,000 268 295 64
2017-11-21 20:31:29 GMT 54.94719 -3.22965 18,000 268 295 64
2017-11-21 20:31:26 GMT 54.94733 -3.22399 18,000 268 295 64
2017-11-21 20:31:25 GMT 54.94739 -3.22174 18,000 268 295 64
2017-11-21 20:31:23 GMT 54.94752 -3.21706 18,000 268 296 64
2017-11-21 20:31:21 GMT 54.94766 -3.21108 18,000 268 296 64
2017-11-21 20:31:16 GMT 54.94793 -3.20010 18,000 268 297 0
2017-11-21 20:31:14 GMT 54.94807 -3.19461 18,000 268 297 0
2017-11-21 20:31:12 GMT 54.94817 -3.18967 18,000 268 297 64
2017-11-21 20:31:10 GMT 54.94826 -3.18529 18,000 268 297 0
2017-11-21 20:31:08 GMT 54.94835 -3.18146 18,000 268 297 64
2017-11-21 20:31:06 GMT 54.94854 -3.17288 18,000 268 297 0
2017-11-21 20:31:03 GMT 54.94862 -3.17061 18,000 268 297 0
2017-11-21 20:31:03 GMT 54.94862 -3.17061 18,000 268 297 0
2017-11-21 20:31:01 GMT 54.94882 -3.16173 18,000 268 297 0
2017-11-21 20:30:57 GMT 54.94899 -3.15469 18,000 268 297 0
2017-11-21 20:30:54 GMT 54.94913 -3.14847 18,000 268 297 0
2017-11-21 20:30:52 GMT 54.94931 -3.13983 18,000 268 297 0
2017-11-21 20:30:50 GMT 54.94936 -3.13748 18,000 268 297 0
2017-11-21 20:30:47 GMT 54.94952 -3.13002 18,000 268 296 0
2017-11-21 20:30:44 GMT 54.94966 -3.12478 18,000 268 296 0
2017-11-21 20:30:42 GMT 54.94977 -3.11866 18,000 268 296 0
2017-11-21 20:30:39 GMT 54.94991 -3.11277 18,000 268 295 0
2017-11-21 20:30:37 GMT 54.95009 -3.10372 18,000 268 295 0
2017-11-21 20:30:35 GMT 54.95018 -3.10000 18,000 268 295 0
2017-11-21 20:30:33 GMT 54.95027 -3.09524 18,000 268 294 0
2017-11-21 20:30:31 GMT 54.95036 -3.09168 18,000 268 294 64
2017-11-21 20:30:29 GMT 54.95045 -3.08837 18,000 268 294 64
2017-11-21 20:30:26 GMT 54.95063 -3.08000 18,000 268 294 0
2017-11-21 20:30:24 GMT 54.95073 -3.07633 18,000 268 294 0
2017-11-21 20:30:22 GMT 54.95087 -3.07044 18,000 268 294 0
2017-11-21 20:30:20 GMT 54.95096 -3.06494 18,000 268 293 0
2017-11-21 20:30:16 GMT 54.95119 -3.05528 18,000 268 293 -64
2017-11-21 20:30:15 GMT 54.95128 -3.05283 18,000 268 293 -64
2017-11-21 20:30:13 GMT 54.95133 -3.05054 18,000 268 293 -64
2017-11-21 20:30:11 GMT 54.95142 -3.04596 18,000 268 293 -64
2017-11-21 20:30:09 GMT 54.95155 -3.04103 18,000 268 293 -64
2017-11-21 20:30:04 GMT 54.95184 -3.02965 18,000 268 293 0
2017-11-21 20:30:02 GMT 54.95197 -3.02415 18,000 268 292 0
2017-11-21 20:30:00 GMT 54.95212 -3.01908 18,000 268 292 0
2017-11-21 20:29:57 GMT 54.95226 -3.01300 18,000 268 292 0
2017-11-21 20:29:55 GMT 54.95238 -3.00791 18,000 268 292 0
2017-11-21 20:29:53 GMT 54.95250 -3.00268 18,000 268 292 0
2017-11-21 20:29:50 GMT 54.95268 -2.99544 18,000 268 292 64
2017-11-21 20:29:48 GMT 54.95282 -2.99044 18,000 268 292 64
2017-11-21 20:29:46 GMT 54.95293 -2.98594 18,000 268 293 0
2017-11-21 20:29:44 GMT 54.95305 -2.97996 18,000 268 293 0
2017-11-21 20:29:42 GMT 54.95306 -2.97867 18,000 268 293 0
2017-11-21 20:29:40 GMT 54.95325 -2.97043 18,000 268 293 0
2017-11-21 20:29:37 GMT 54.95333 -2.96697 18,000 268 293 0
2017-11-21 20:29:34 GMT 54.95348 -2.95912 18,000 268 294 0
2017-11-21 20:29:31 GMT 54.95366 -2.95174 18,000 268 294 0
2017-11-21 20:29:29 GMT 54.95375 -2.94700 18,000 268 294 0
2017-11-21 20:29:26 GMT 54.95384 -2.94102 18,000 268 294 0
2017-11-21 20:29:23 GMT 54.95403 -2.93246 18,000 268 294 0
2017-11-21 20:29:21 GMT 54.95412 -2.92753 18,000 268 294 0
2017-11-21 20:29:19 GMT 54.95425 -2.92285 18,000 268 294 0
2017-11-21 20:29:19 GMT 54.95425 -2.92285 18,000 268 294 0
2017-11-21 20:29:15 GMT 54.95441 -2.91487 18,000 268 295 0
2017-11-21 20:29:13 GMT 54.95457 -2.90677 18,000 268 295 0
2017-11-21 20:29:10 GMT 54.95468 -2.90164 18,000 268 295 0
2017-11-21 20:29:08 GMT 54.95480 -2.89562 18,000 268 295 0
2017-11-21 20:29:04 GMT 54.95496 -2.88916 18,000 268 295 0
2017-11-21 20:29:02 GMT 54.95508 -2.88213 18,000 268 295 0
2017-11-21 20:29:00 GMT 54.95517 -2.87834 18,000 268 295 0
2017-11-21 20:28:58 GMT 54.95531 -2.87220 18,000 268 295 0
2017-11-21 20:28:52 GMT 54.95558 -2.86089 18,000 268 295 0
2017-11-21 20:28:50 GMT 54.95567 -2.85636 18,000 268 295 0
2017-11-21 20:28:48 GMT 54.95580 -2.85029 18,000 268 295 0
2017-11-21 20:28:46 GMT 54.95594 -2.84463 18,000 268 295 0
2017-11-21 20:28:42 GMT 54.95613 -2.83601 18,000 268 295 0
2017-11-21 20:28:40 GMT 54.95627 -2.82973 18,000 268 295 0
2017-11-21 20:28:39 GMT 54.95627 -2.82973 18,000 268 295 0
2017-11-21 20:28:37 GMT 54.95641 -2.82341 18,000 268 295 0
2017-11-21 20:28:33 GMT 54.95663 -2.81347 18,000 268 295 0
2017-11-21 20:28:31 GMT 54.95673 -2.81009 18,000 268 295 0
2017-11-21 20:28:29 GMT 54.95683 -2.80484 18,000 268 295 0
2017-11-21 20:28:27 GMT 54.95701 -2.79727 18,000 268 294 0
2017-11-21 20:28:26 GMT 54.95701 -2.79727 18,000 268 294 -64
2017-11-21 20:28:23 GMT 54.95720 -2.79019 18,000 268 294 0
2017-11-21 20:28:21 GMT 54.95729 -2.78670 18,000 268 294 -64
2017-11-21 20:28:19 GMT 54.95746 -2.77873 18,000 268 294 0
2017-11-21 20:28:16 GMT 54.95764 -2.77146 18,000 268 294 0
2017-11-21 20:28:13 GMT 54.95773 -2.76670 18,000 268 294 0
2017-11-21 20:28:11 GMT 54.95792 -2.75983 18,000 268 294 0
2017-11-21 20:28:09 GMT 54.95801 -2.75611 18,000 268 294 0
2017-11-21 20:28:07 GMT 54.95804 -2.75391 18,000 268 294 0
2017-11-21 20:28:05 GMT 54.95827 -2.74533 18,000 268 295 0
2017-11-21 20:28:02 GMT 54.95837 -2.74077 18,000 268 295 0
2017-11-21 20:28:00 GMT 54.95846 -2.73709 18,000 268 295 0
2017-11-21 20:27:58 GMT 54.95855 -2.73143 18,000 268 295 0
2017-11-21 20:27:56 GMT 54.95865 -2.72800 18,000 268 295 0
2017-11-21 20:27:54 GMT 54.95878 -2.72128 18,000 268 296 64
2017-11-21 20:27:52 GMT 54.95888 -2.71613 18,000 268 296 64
2017-11-21 20:27:50 GMT 54.95901 -2.71129 18,000 268 296 0
2017-11-21 20:27:48 GMT 54.95906 -2.70771 18,000 268 296 0
2017-11-21 20:27:45 GMT 54.95920 -2.70056 18,000 269 296 0
2017-11-21 20:27:42 GMT 54.95934 -2.69432 18,000 269 296 0
2017-11-21 20:27:40 GMT 54.95943 -2.68965 18,000 269 296 0
2017-11-21 20:27:38 GMT 54.95956 -2.68357 18,000 269 296 0
2017-11-21 20:27:36 GMT 54.95962 -2.67991 18,000 269 296 0
2017-11-21 20:27:34 GMT 54.95971 -2.67517 18,000 269 296 0
2017-11-21 20:27:32 GMT 54.95981 -2.67018 18,000 269 297 0
2017-11-21 20:27:30 GMT 54.95990 -2.66568 18,000 269 297 0
2017-11-21 20:27:28 GMT 54.96004 -2.65894 18,000 269 297 0
2017-11-21 20:27:26 GMT 54.96008 -2.65536 18,000 269 297 0
2017-11-21 20:27:24 GMT 54.96016 -2.65150 18,000 269 297 0
2017-11-21 20:27:22 GMT 54.96027 -2.64662 18,000 269 297 0
2017-11-21 20:27:20 GMT 54.96039 -2.63938 18,000 269 296 0
2017-11-21 20:27:20 GMT 54.96039 -2.63938 18,000 269 296 0
2017-11-21 20:27:17 GMT 54.96043 -2.63575 18,000 269 296 0
2017-11-21 20:27:15 GMT 54.96062 -2.62719 18,000 269 296 64
2017-11-21 20:27:12 GMT 54.96075 -2.61984 18,000 269 296 0
2017-11-21 20:27:09 GMT 54.96083 -2.61574 18,000 269 295 0
2017-11-21 20:27:07 GMT 54.96094 -2.60869 18,000 269 295 0
2017-11-21 20:27:04 GMT 54.96103 -2.60376 18,000 269 295 0
2017-11-21 20:27:01 GMT 54.96115 -2.59627 18,000 269 295 0
2017-11-21 20:26:59 GMT 54.96125 -2.59152 18,000 269 295 0
2017-11-21 20:26:57 GMT 54.96135 -2.58599 18,000 269 294 64
2017-11-21 20:26:55 GMT 54.96144 -2.58243 18,000 269 294 64
2017-11-21 20:26:55 GMT 54.96144 -2.58243 18,000 269 294 64
2017-11-21 20:26:52 GMT 54.96162 -2.57288 18,000 269 293 0
2017-11-21 20:26:50 GMT 54.96167 -2.57040 18,000 269 293 0
2017-11-21 20:26:48 GMT 54.96176 -2.56581 18,000 269 293 0
2017-11-21 20:26:46 GMT 54.96190 -2.55917 18,000 269 292 64
2017-11-21 20:26:44 GMT 54.96195 -2.55574 18,000 269 292 0
2017-11-21 20:26:41 GMT 54.96204 -2.55020 18,000 269 292 0
2017-11-21 20:26:39 GMT 54.96213 -2.54542 18,000 269 292 0
2017-11-21 20:26:37 GMT 54.96227 -2.53962 18,000 269 292 0
2017-11-21 20:26:35 GMT 54.96236 -2.53460 18,000 269 292 0
2017-11-21 20:26:33 GMT 54.96245 -2.53098 18,000 269 292 0
2017-11-21 20:26:31 GMT 54.96260 -2.52361 18,000 269 292 0
2017-11-21 20:26:29 GMT 54.96263 -2.52096 18,000 269 291 0
2017-11-21 20:26:27 GMT 54.96274 -2.51728 18,000 269 291 -64
2017-11-21 20:26:25 GMT 54.96283 -2.51121 18,000 269 291 0
2017-11-21 20:26:23 GMT 54.96295 -2.50666 18,000 269 291 0
2017-11-21 20:26:18 GMT 54.96318 -2.49406 18,000 268 291 0
2017-11-21 20:26:16 GMT 54.96323 -2.49172 18,000 268 291 0
2017-11-21 20:26:14 GMT 54.96336 -2.48590 18,000 268 291 0
2017-11-21 20:26:14 GMT 54.96339 -2.48482 18,000 268 291 0
2017-11-21 20:26:12 GMT 54.96346 -2.48267 18,000 268 291 0
2017-11-21 20:26:09 GMT 54.96362 -2.47434 18,000 269 291 0
2017-11-21 20:26:07 GMT 54.96372 -2.46851 18,000 269 291 0
2017-11-21 20:26:05 GMT 54.96382 -2.46490 18,000 269 291 0
2017-11-21 20:26:03 GMT 54.96390 -2.45944 18,000 269 291 0
2017-11-21 20:26:00 GMT 54.96399 -2.45453 18,000 269 292 0
2017-11-21 20:25:58 GMT 54.96409 -2.44978 18,000 269 292 0
2017-11-21 20:25:56 GMT 54.96423 -2.44268 18,000 269 292 0
2017-11-21 20:25:54 GMT 54.96432 -2.43813 18,000 269 293 0
2017-11-21 20:25:52 GMT 54.96437 -2.43444 18,000 269 293 0
2017-11-21 20:25:50 GMT 54.96441 -2.43131 18,000 269 293 0
2017-11-21 20:25:47 GMT 54.96460 -2.42321 18,000 269 294 0
2017-11-21 20:25:45 GMT 54.96464 -2.41869 18,000 269 294 64
2017-11-21 20:25:43 GMT 54.96474 -2.41366 18,000 269 294 128
2017-11-21 20:25:41 GMT 54.96488 -2.40750 18,000 269 295 192
2017-11-21 20:25:39 GMT 54.96493 -2.40517 18,000 269 295 320
2017-11-21 20:25:37 GMT 54.96507 -2.39710 17,975 269 295 448
2017-11-21 20:25:35 GMT 54.96516 -2.39186 17,950 269 295 576
2017-11-21 20:25:32 GMT 54.96524 -2.38726 17,925 269 296 768
2017-11-21 20:25:30 GMT 54.96530 -2.38237 17,900 269 296 1088
2017-11-21 20:25:28 GMT 54.96538 -2.37870 17,875 269 296 1024
2017-11-21 20:25:26 GMT 54.96547 -2.37281 17,825 269 297 1216
2017-11-21 20:25:23 GMT 54.96562 -2.36556 17,750 269 297 1472
2017-11-21 20:25:21 GMT 54.96567 -2.36098 17,700 269 298 1664
2017-11-21 20:25:19 GMT 54.96576 -2.35548 17,650 269 299 1792
2017-11-21 20:25:17 GMT 54.96584 -2.35301 17,600 269 299 1856
2017-11-21 20:25:15 GMT 54.96590 -2.34808 17,525 269 300 2048
2017-11-21 20:25:13 GMT 54.96597 -2.34292 17,450 269 301 2304
2017-11-21 20:25:11 GMT 54.96609 -2.33676 17,350 269 302 2496
2017-11-21 20:25:08 GMT 54.96620 -2.32959 17,225 269 303 2752
2017-11-21 20:25:06 GMT 54.96634 -2.32304 17,100 269 304 3200
2017-11-21 20:25:03 GMT 54.96641 -2.31687 16,950 269 305 3584
2017-11-21 20:25:01 GMT 54.96655 -2.31004 16,775 269 305 3776
2017-11-21 20:24:58 GMT 54.96660 -2.30638 16,675 269 306 3968
2017-11-21 20:24:56 GMT 54.96670 -2.29913 16,475 269 308 4160
2017-11-21 20:24:54 GMT 54.96675 -2.29760 16,425 269 308 4160
2017-11-21 20:24:51 GMT 54.96689 -2.28871 16,175 269 311 4480
2017-11-21 20:24:49 GMT 54.96693 -2.28407 16,025 269 312 4480
2017-11-21 20:24:49 GMT 54.96693 -2.28507 16,075 269 312 4480
2017-11-21 20:24:47 GMT 54.96703 -2.27918 15,900 269 314 4288
2017-11-21 20:24:45 GMT 54.96707 -2.27417 15,750 269 316 4160
2017-11-21 20:24:43 GMT 54.96721 -2.26626 15,550 269 318 3840
2017-11-21 20:24:41 GMT 54.96726 -2.26383 15,475 269 318 3840
2017-11-21 20:24:39 GMT 54.96735 -2.25874 15,350 269 319 3776
2017-11-21 20:24:37 GMT 54.96744 -2.25270 15,200 269 319 3776
2017-11-21 20:24:35 GMT 54.96748 -2.24800 15,100 269 320 3584
2017-11-21 20:24:31 GMT 54.96767 -2.23630 14,850 269 320 2880
2017-11-21 20:24:31 GMT 54.96767 -2.23774 14,875 269 320 2880
2017-11-21 20:24:28 GMT 54.96776 -2.23147 14,775 269 319 1984
2017-11-21 20:24:26 GMT 54.96785 -2.22441 14,675 269 319 2112
2017-11-21 20:24:24 GMT 54.96790 -2.22053 14,625 269 318 1920
2017-11-21 20:24:21 GMT 54.96803 -2.21237 14,525 269 316 1600
2017-11-21 20:24:19 GMT 54.96812 -2.20704 14,475 269 314 1216
2017-11-21 20:24:17 GMT 54.96822 -2.20050 14,425 269 312 1024
2017-11-21 20:24:16 GMT 54.96822 -2.20050 14,425 269 312 1024
2017-11-21 20:24:14 GMT 54.96832 -2.19560 14,400 269 309 768
2017-11-21 20:24:12 GMT 54.96842 -2.18886 14,350 269 306 832
2017-11-21 20:24:10 GMT 54.96851 -2.18470 14,325 269 304 960
2017-11-21 20:24:08 GMT 54.96856 -2.17979 14,300 269 301 1152
2017-11-21 20:24:06 GMT 54.96865 -2.17488 14,250 269 299 960
2017-11-21 20:24:04 GMT 54.96874 -2.17030 14,225 269 298 896
2017-11-21 20:24:01 GMT 54.96884 -2.16314 14,175 269 295 960
2017-11-21 20:23:58 GMT 54.96895 -2.15591 14,125 269 291 1024
2017-11-21 20:23:56 GMT 54.96907 -2.14908 14,075 269 287 1024
2017-11-21 20:23:54 GMT 54.96913 -2.14452 14,050 269 283 1024
2017-11-21 20:23:54 GMT 54.96909 -2.14686 14,050 269 284 1024
2017-11-21 20:23:51 GMT 54.96922 -2.13975 14,000 269 280 1024
2017-11-21 20:23:49 GMT 54.96930 -2.13509 13,975 269 278 1152
2017-11-21 20:23:47 GMT 54.96935 -2.13060 13,925 269 275 1216
2017-11-21 20:23:44 GMT 54.96949 -2.12394 13,875 269 272 1152
2017-11-21 20:23:42 GMT 54.96954 -2.11988 13,825 269 267 1408
2017-11-21 20:23:40 GMT 54.96963 -2.11341 13,775 269 267 1408
2017-11-21 20:23:38 GMT 54.96972 -2.10921 13,725 269 262 1792
2017-11-21 20:23:36 GMT 54.96977 -2.10606 13,675 269 263 1664
2017-11-21 20:23:35 GMT 54.96982 -2.10485 13,650 269 263 1664
2017-11-21 20:23:33 GMT 54.96991 -2.09831 13,550 269 258 2368
2017-11-21 20:23:29 GMT 54.97000 -2.09165 13,450 269 258 2368
2017-11-21 20:23:27 GMT 54.97009 -2.08805 13,375 269 256 2560
2017-11-21 20:23:27 GMT 54.97009 -2.08805 13,375 269 256 2496
2017-11-21 20:23:24 GMT 54.97019 -2.08058 13,200 269 255 2816
2017-11-21 20:23:19 GMT 54.97037 -2.07092 12,975 269 253 2944
2017-11-21 20:23:17 GMT 54.97041 -2.06591 12,850 269 253 3008
2017-11-21 20:23:14 GMT 54.97051 -2.06188 12,750 269 252 3072
2017-11-21 20:23:12 GMT 54.97055 -2.05800 12,650 269 251 3136
2017-11-21 20:23:10 GMT 54.97060 -2.05339 12,525 269 251 3136
2017-11-21 20:23:08 GMT 54.97069 -2.04895 12,425 269 250 3072
2017-11-21 20:23:06 GMT 54.97073 -2.04491 12,325 269 249 3136
2017-11-21 20:23:04 GMT 54.97082 -2.03893 12,150 269 248 3136
2017-11-21 20:23:04 GMT 54.97082 -2.03990 12,175 269 248 3136
2017-11-21 20:23:00 GMT 54.97093 -2.03064 11,925 269 246 3520
2017-11-21 20:22:57 GMT 54.97096 -2.02762 11,850 269 246 3584
2017-11-21 20:22:55 GMT 54.97101 -2.02245 11,675 269 246 3648
2017-11-21 20:22:53 GMT 54.97107 -2.01799 11,550 269 246 3648
2017-11-21 20:22:50 GMT 54.97115 -2.01219 11,375 269 246 3584
2017-11-21 20:22:50 GMT 54.97115 -2.01219 11,375 269 246 3584
2017-11-21 20:22:47 GMT 54.97121 -2.00600 11,175 269 245 3456
2017-11-21 20:22:45 GMT 54.97126 -2.00184 11,050 269 245 3392
2017-11-21 20:22:43 GMT 54.97126 -1.99985 11,000 270 244 3392
2017-11-21 20:22:41 GMT 54.97133 -1.99604 10,900 270 244 3392
2017-11-21 20:22:39 GMT 54.97135 -1.99144 10,775 270 243 3200
2017-11-21 20:22:37 GMT 54.97140 -1.98753 10,650 270 242 3072
2017-11-21 20:22:34 GMT 54.97147 -1.98142 10,500 270 240 2880
2017-11-21 20:22:32 GMT 54.97147 -1.97770 10,425 270 238 2880
2017-11-21 20:22:29 GMT 54.97154 -1.97205 10,275 270 237 2880
2017-11-21 20:22:27 GMT 54.97154 -1.96847 10,175 270 236 3008
2017-11-21 20:22:24 GMT 54.97158 -1.96297 10,025 270 235 3136
2017-11-21 20:22:22 GMT 54.97158 -1.96014 9,950 270 234 3200
2017-11-21 20:22:19 GMT 54.97163 -1.95240 9,725 270 233 3648
2017-11-21 20:22:18 GMT 54.97163 -1.95240 9,725 270 233 3712
2017-11-21 20:22:15 GMT 54.97163 -1.94658 9,525 270 232 3904
2017-11-21 20:22:13 GMT 54.97168 -1.94158 9,350 270 233 4160
2017-11-21 20:22:09 GMT 54.97174 -1.93384 9,050 270 233 4224
2017-11-21 20:22:08 GMT 54.97174 -1.93384 9,050 270 233 4224
2017-11-21 20:22:05 GMT 54.97179 -1.92705 8,800 269 234 4160
2017-11-21 20:22:03 GMT 54.97183 -1.92204 8,625 269 234 4096
2017-11-21 20:21:58 GMT 54.97197 -1.91453 8,350 267 233 3968
2017-11-21 20:21:57 GMT 54.97201 -1.91340 8,300 265 233 3904
2017-11-21 20:21:54 GMT 54.97233 -1.90613 8,075 258 231 3328
2017-11-21 20:21:52 GMT 54.97265 -1.90322 7,975 256 231 3136
2017-11-21 20:21:48 GMT 54.97400 -1.89506 7,750 248 229 3136
2017-11-21 20:21:45 GMT 54.97521 -1.89015 7,600 242 229 3392
2017-11-21 20:21:41 GMT 54.97705 -1.88424 7,400 241 230 3456
2017-11-21 20:21:38 GMT 54.97884 -1.87874 7,200 241 229 3456
2017-11-21 20:21:38 GMT 54.97884 -1.87874 7,200 241 229 3520
2017-11-21 20:21:35 GMT 54.98089 -1.87242 6,975 241 228 3264
2017-11-21 20:21:32 GMT 54.98195 -1.86913 6,850 241 226 3200
2017-11-21 20:21:28 GMT 54.98415 -1.86227 6,625 241 225 3136
2017-11-21 20:21:28 GMT 54.98415 -1.86227 6,625 241 225 3136
2017-11-21 20:21:23 GMT 54.98657 -1.85486 6,375 241 223 3264
2017-11-21 20:21:21 GMT 54.98712 -1.85305 6,325 242 222 3392
2017-11-21 20:21:17 GMT 54.98936 -1.84604 6,050 241 222 3712
2017-11-21 20:21:14 GMT 54.99086 -1.84137 5,850 241 222 3904
2017-11-21 20:21:12 GMT 54.99239 -1.83666 5,650 241 222 4096
2017-11-21 20:21:07 GMT 54.99444 -1.83014 5,375 241 223 3904
2017-11-21 20:21:04 GMT 54.99588 -1.82581 5,200 241 223 3712
2017-11-21 20:21:01 GMT 54.99728 -1.82140 5,025 241 222 3520
2017-11-21 20:20:59 GMT 54.99812 -1.81874 4,925 241 222 3456
2017-11-21 20:20:56 GMT 54.99993 -1.81316 4,725 241 220 3072
2017-11-21 20:20:53 GMT 55.00124 -1.80916 4,600 241 218 3008
2017-11-21 20:20:50 GMT 55.00269 -1.80459 4,475 241 216 2880
2017-11-21 20:20:46 GMT 55.00496 -1.79760 4,250 241 211 2496
2017-11-21 20:20:43 GMT 55.00631 -1.79343 4,150 241 208 2240
2017-11-21 20:20:40 GMT 55.00745 -1.78988 4,050 241 204 2112
2017-11-21 20:20:35 GMT 55.01010 -1.78181 3,875 240 195 2048
2017-11-21 20:20:33 GMT 55.01101 -1.77912 3,800 240 193 2112
2017-11-21 20:20:30 GMT 55.01207 -1.77599 3,725 240 189 2176
2017-11-21 20:20:22 GMT 55.01557 -1.76539 3,400 241 179 2240
2017-11-21 20:20:20 GMT 55.01637 -1.76297 3,350 241 177 2176
2017-11-21 20:20:12 GMT 55.01967 -1.75297 3,050 241 167 1664
2017-11-21 20:20:10 GMT 55.02045 -1.75046 3,000 241 162 1408
2017-11-21 20:20:00 GMT 55.02400 -1.73934 2,725 243 151 2112
2017-11-21 20:19:52 GMT 55.02663 -1.73043 2,450 245 144 2048
2017-11-21 20:19:50 GMT 55.02722 -1.72833 2,375 244 142 1856
2017-11-21 20:19:40 GMT 55.03011 -1.71815 2,000 244 135 3328
2017-11-21 20:19:29 GMT 55.03317 -1.70729 1,400 244 141 3008
2017-11-21 20:19:23 GMT 55.03500 -1.70062 1,100 246 145 2304
2017-11-21 20:19:19 GMT 55.03601 -1.69705 950 246 145 2304
2017-11-21 20:19:14 GMT 55.03729 -1.69206 800 245 135 576
2017-11-21 20:19:09 GMT 55.03867 -1.68697 800 245 121 128
2017-11-21 20:19:06 GMT 55.03950 -1.68390 800 245 106 128
2017-11-21 20:18:58 GMT 55.04084 -1.67881 0 244 74 0
2017-11-21 20:18:55 GMT 55.04133 -1.67700 0 244 58 0
2017-11-21 20:18:48 GMT 55.04195 -1.67467 0 244 20 0
2017-11-21 20:18:37 GMT 55.04211 -1.67410 0 241 0 0
2017-11-21 20:18:27 GMT 55.04211 -1.67410 0 241 0 0
2017-11-21 20:18:17 GMT 55.04211 -1.67410 0 241 0 0
2017-11-21 20:18:07 GMT 55.04211 -1.67410 0 241 0 0
2017-11-21 20:17:57 GMT 55.04211 -1.67410 0 241 0 0
2017-11-21 20:17:47 GMT 55.04211 -1.67410 0 241 0 0
2017-11-21 20:17:37 GMT 55.04211 -1.67410 0 241 0 0
2017-11-21 20:17:27 GMT 55.04212 -1.67404 0 241 6 0
2017-11-21 20:17:23 GMT 55.04216 -1.67383 0 222 7 0
2017-11-21 20:17:15 GMT 55.04230 -1.67356 0 182 8 0
2017-11-21 20:17:12 GMT 55.04241 -1.67354 0 165 9 0
2017-11-21 20:17:06 GMT 55.04264 -1.67363 0 165 9 0
2017-11-21 20:17:02 GMT 55.04281 -1.67370 0 160 8 0
2017-11-21 20:16:56 GMT 55.04298 -1.67379 0 146 7 0
2017-11-21 20:16:52 GMT 55.04310 -1.67390 0 132 5 0
2017-11-21 20:16:46 GMT 55.04317 -1.67400 0 123 2 0
2017-11-21 20:16:35 GMT 55.04319 -1.67406 0 118 0 0
2017-11-21 20:16:27 GMT 55.04325 -1.67415 0 109 4 0
2017-11-21 20:16:25 GMT 55.04325 -1.67417 0 109 4 0
2017-11-21 20:16:21 GMT 55.04330 -1.67429 0 95 6 0
2017-11-21 20:16:15 GMT 55.04331 -1.67455 0 92 9 0
2017-11-21 20:16:11 GMT 55.04331 -1.67487 0 92 11 0
2017-11-21 20:16:05 GMT 55.04333 -1.67537 0 90 12 0
2017-11-21 20:16:01 GMT 55.04334 -1.67587 0 84 17 0
2017-11-21 20:15:55 GMT 55.04328 -1.67659 0 67 18 0
2017-11-21 20:15:50 GMT 55.04312 -1.67716 0 64 20 0
2017-11-21 20:15:44 GMT 55.04289 -1.67802 0 64 23 0
2017-11-21 20:15:40 GMT 55.04262 -1.67899 0 64 26 0
2017-11-21 20:15:34 GMT 55.04242 -1.67976 0 64 27 0
2017-11-21 20:15:29 GMT 55.04208 -1.68107 0 64 28 0
2017-11-21 20:15:24 GMT 55.04187 -1.68186 0 64 29 0
2017-11-21 20:15:18 GMT 55.04154 -1.68309 0 64 28 0
2017-11-21 20:15:14 GMT 55.04132 -1.68392 0 64 27 0
2017-11-21 20:15:07 GMT 55.04095 -1.68529 0 64 26 0
2017-11-21 20:15:03 GMT 55.04079 -1.68592 0 64 26 0
2017-11-21 20:14:57 GMT 55.04047 -1.68713 0 64 25 0
2017-11-21 20:14:53 GMT 55.04030 -1.68778 0 64 25 0
2017-11-21 20:14:47 GMT 55.03998 -1.68897 0 64 28 0
2017-11-21 20:14:43 GMT 55.03979 -1.68969 0 64 29 0
2017-11-21 20:14:36 GMT 55.03939 -1.69119 0 64 31 0
2017-11-21 20:14:33 GMT 55.03919 -1.69194 0 64 31 0
2017-11-21 20:14:26 GMT 55.03878 -1.69349 0 64 29 0
2017-11-21 20:14:23 GMT 55.03861 -1.69414 0 64 28 0
2017-11-21 20:14:16 GMT 55.03827 -1.69560 0 70 27 0
2017-11-21 20:14:12 GMT 55.03814 -1.69626 0 73 26 0
2017-11-21 20:14:02 GMT 55.03787 -1.69818 0 81 23 0
2017-11-21 20:13:55 GMT 55.03777 -1.69955 0 84 21 0
2017-11-21 20:13:52 GMT 55.03775 -1.70003 0 90 20 0
2017-11-21 20:13:41 GMT 55.03776 -1.70157 0 92 16 0
2017-11-21 20:13:33 GMT 55.03779 -1.70259 0 90 14 0
2017-11-21 20:13:31 GMT 55.03780 -1.70282 0 90 14 0
2017-11-21 20:13:24 GMT 55.03778 -1.70357 0 73 14 0
2017-11-21 20:13:21 GMT 55.03773 -1.70386 0 50 14 0
2017-11-21 20:13:11 GMT 55.03721 -1.70432 0 2 15 0
2017-11-21 20:13:00 GMT 55.03656 -1.70440 0 11 14 0
2017-11-21 20:12:53 GMT 55.03615 -1.70469 0 53 12 0
2017-11-21 20:12:50 GMT 55.03606 -1.70490 0 64 11 0
2017-11-21 20:12:43 GMT 55.03595 -1.70538 0 84 6 0
2017-11-21 20:12:39 GMT 55.03594 -1.70551 0 84 0 0
2017-11-21 20:12:04 GMT 55.03594 -1.70556 0 84 0 0
2017-11-21 20:11:59 GMT 55.03594 -1.70557 0 84 0 0
2017-11-21 20:11:24 GMT 55.03594 -1.70556 0 84 0 0
2017-11-21 20:11:20 GMT 55.03594 -1.70557 0 84 0 0
2017-11-21 20:11:14 GMT 55.03594 -1.70557 0 84 0 0
2017-11-21 20:10:44 GMT 55.03594 -1.70556 0 84 0 0
2017-11-21 20:10:07 GMT 55.03594 -1.70554 0 84 2 0
2017-11-21 20:09:36 GMT 55.03610 -1.70508 0 47 3 0
2017-11-21 20:09:00 GMT 55.03643 -1.70549 0 315 5 0
2017-11-21 20:08:30 GMT 55.03672 -1.70591 0 320 0 0
2017-11-21 20:07:56 GMT 55.03672 -1.70592 0 320 0 0
2017-11-21 20:07:51 GMT 55.03672 -1.70592 0 320 0 0
2017-11-21 20:07:36 GMT 55.03672 -1.70592 0 320 0 0
2017-11-21 20:07:26 GMT 55.03672 -1.70592 0 320 0 0
2017-11-21 20:07:20 GMT 55.03672 -1.70592 0 320 0 0
2017-11-21 20:07:05 GMT 55.03672 -1.70592 0 320 0 0
2017-11-21 20:07:00 GMT 55.03672 -1.70592 0 320 0 0
2017-11-21 20:06:50 GMT 55.03672 -1.70592 0 320 0 0
2017-11-21 20:06:16 GMT 55.03672 -1.70592 0 320 0 0
2017-11-21 20:06:06 GMT 55.03672 -1.70592 0 320 0 0
2017-11-21 20:05:56 GMT 55.03672 -1.70591 0 320 0 0
2017-11-21 20:05:25 GMT 55.03672 -1.70592 0 320 0 0
2017-11-21 20:05:05 GMT 55.03672 -1.70592 0 320 0 0
2017-11-21 20:04:55 GMT 55.03672 -1.70591 0 320 0 0
2017-11-21 20:04:45 GMT 55.03672 -1.70591 0 320 0 0
2017-11-21 20:04:15 GMT 55.03672 -1.70592 0 320 0 0
2017-11-21 20:04:00 GMT 55.03672 -1.70592 0 320 0 0
2017-11-21 20:03:55 GMT 55.03672 -1.70592 0 320 0 0
2017-11-21 20:03:25 GMT 55.03672 -1.70592 0 320 0 0
2017-11-21 20:03:15 GMT 55.03672 -1.70592 0 320 0 0
2017-11-21 20:03:05 GMT 55.03672 -1.70592 0 320 0 0
2017-11-21 20:02:35 GMT 55.03672 -1.70592 0 320 0 0
2017-11-21 20:02:05 GMT 55.03672 -1.70592 0 320 0 0
2017-11-21 20:01:40 GMT 55.03672 -1.70592 0 320 0 0
2017-11-21 20:01:30 GMT 55.03672 -1.70592 0 320 0 0
2017-11-21 20:01:20 GMT 55.03672 -1.70592 0 320 0 0
2017-11-21 20:01:00 GMT 55.03672 -1.70592 0 320 0 0
2017-11-21 20:00:30 GMT 55.03672 -1.70592 0 320 0 0
2017-11-21 20:00:00 GMT 55.03672 -1.70592 0 320 0 0
We lost coverage of the aircraft here for a total of 35 minutes
2017-11-21 19:25:07 GMT 55.03582 -1.69922 0 272 41 0
2017-11-21 19:25:04 GMT 55.03583 -1.69828 0 261 44 0
2017-11-21 19:24:56 GMT 55.03651 -1.69515 0 244 67 0
2017-11-21 19:24:54 GMT 55.03677 -1.69418 0 244 72 0
2017-11-21 19:24:44 GMT 55.03830 -1.68850 700 246 103 0
2017-11-21 19:24:41 GMT 55.03890 -1.68615 725 246 121 0
2017-11-21 19:24:33 GMT 55.04081 -1.67891 725 246 131 -256
2017-11-21 19:24:31 GMT 55.04146 -1.67650 750 246 130 -768
2017-11-21 19:24:24 GMT 55.04315 -1.67016 850 245 129 -576
2017-11-21 19:24:21 GMT 55.04402 -1.66693 900 246 128 -640
2017-11-21 19:24:13 GMT 55.04576 -1.66039 975 246 128 -704
2017-11-21 19:24:08 GMT 55.04700 -1.65561 1,025 246 128 -640
2017-11-21 19:24:03 GMT 55.04832 -1.65070 1,100 246 129 -704
2017-11-21 19:23:53 GMT 55.05093 -1.64084 1,200 246 129 -640
2017-11-21 19:23:42 GMT 55.05345 -1.63123 1,325 246 128 -768
2017-11-21 19:23:32 GMT 55.05607 -1.62140 1,450 246 128 -576
2017-11-21 19:23:28 GMT 55.05714 -1.61732 1,475 246 128 -576
2017-11-21 19:23:22 GMT 55.05862 -1.61176 1,550 246 129 -768
2017-11-21 19:23:18 GMT 55.05963 -1.60788 1,600 246 130 -704
2017-11-21 19:23:12 GMT 55.06115 -1.60234 1,675 246 130 -640
2017-11-21 19:23:08 GMT 55.06203 -1.59893 1,725 246 129 -640
2017-11-21 19:23:04 GMT 55.06301 -1.59518 1,750 246 134 -768
2017-11-21 19:23:01 GMT 55.06380 -1.59235 1,775 245 131 -768
2017-11-21 19:22:58 GMT 55.06469 -1.58902 1,825 245 132 -704
2017-11-21 19:22:56 GMT 55.06520 -1.58719 1,850 246 134 -768
2017-11-21 19:22:51 GMT 55.06655 -1.58211 1,900 246 134 -768
2017-11-21 19:22:47 GMT 55.06755 -1.57824 1,950 246 135 -576
2017-11-21 19:22:45 GMT 55.06822 -1.57562 1,975 246 149 -1088
2017-11-21 19:22:40 GMT 55.06929 -1.57161 2,025 246 142 -768
2017-11-21 19:22:36 GMT 55.07039 -1.56733 2,100 246 144 -896
2017-11-21 19:22:31 GMT 55.07208 -1.56103 2,200 246 149 -1088
2017-11-21 19:22:27 GMT 55.07291 -1.55780 2,250 246 152 -1088
2017-11-21 19:22:20 GMT 55.07501 -1.54980 2,350 246 157 -576
2017-11-21 19:22:13 GMT 55.07721 -1.54133 2,400 246 160 -448
2017-11-21 19:22:09 GMT 55.07826 -1.53736 2,475 246 161 -832
2017-11-21 19:22:06 GMT 55.07935 -1.53334 2,500 246 161 -576
2017-11-21 19:21:59 GMT 55.08135 -1.52560 2,550 246 162 -64
2017-11-21 19:21:53 GMT 55.08339 -1.51781 2,550 246 163 -128
2017-11-21 19:21:49 GMT 55.08449 -1.51353 2,550 246 165 64
2017-11-21 19:21:44 GMT 55.08633 -1.50671 2,550 246 168 64
2017-11-21 19:21:39 GMT 55.08778 -1.50113 2,525 246 175 128
2017-11-21 19:21:35 GMT 55.08927 -1.49572 2,525 245 182 64
2017-11-21 19:21:29 GMT 55.09163 -1.48711 2,500 244 191 -192
2017-11-21 19:21:24 GMT 55.09369 -1.48016 2,525 243 194 0
2017-11-21 19:21:19 GMT 55.09570 -1.47354 2,525 242 195 64
2017-11-21 19:21:14 GMT 55.09765 -1.46742 2,525 239 196 0
2017-11-21 19:21:08 GMT 55.10046 -1.45924 2,525 236 196 0
2017-11-21 19:21:03 GMT 55.10298 -1.45286 2,525 231 197 64
2017-11-21 19:20:58 GMT 55.10600 -1.44664 2,525 223 199 256
2017-11-21 19:20:52 GMT 55.11008 -1.44034 2,525 215 201 64
2017-11-21 19:20:48 GMT 55.11357 -1.43646 2,525 207 204 -192
2017-11-21 19:20:41 GMT 55.11932 -1.43226 2,550 196 206 128
2017-11-21 19:20:38 GMT 55.12253 -1.43121 2,550 182 209 192
2017-11-21 19:20:31 GMT 55.12889 -1.43129 2,525 172 212 -64
2017-11-21 19:20:27 GMT 55.13279 -1.43288 2,525 159 224 -128
2017-11-21 19:20:22 GMT 55.13759 -1.43630 2,550 148 238 -64
2017-11-21 19:20:17 GMT 55.14212 -1.44082 2,550 142 245 -128
2017-11-21 19:20:11 GMT 55.14780 -1.44947 2,575 130 260 -256
2017-11-21 19:20:08 GMT 55.15062 -1.45569 2,575 123 269 -448
2017-11-21 19:20:01 GMT 55.15463 -1.46792 2,650 111 283 -1024
2017-11-21 19:20:01 GMT 55.15435 -1.46692 2,650 112 281 -896
2017-11-21 19:19:57 GMT 55.15653 -1.47650 2,725 104 290 -1280
2017-11-21 19:19:50 GMT 55.15830 -1.49164 2,875 87 304 -2368
2017-11-21 19:19:47 GMT 55.15865 -1.49971 2,975 89 303 -1984
2017-11-21 19:19:41 GMT 55.15828 -1.51377 3,200 84 307 -2240
2017-11-21 19:19:36 GMT 55.15773 -1.52516 3,400 84 308 -2496
2017-11-21 19:19:30 GMT 55.15695 -1.54008 3,625 84 309 -2112
2017-11-21 19:19:27 GMT 55.15649 -1.54932 3,750 85 312 -1216
2017-11-21 19:19:19 GMT 55.15551 -1.56805 3,825 84 320 -512
2017-11-21 19:19:16 GMT 55.15514 -1.57571 3,850 84 323 -640
2017-11-21 19:19:16 GMT 55.15505 -1.57704 3,875 84 323 -640
2017-11-21 19:19:10 GMT 55.15425 -1.59229 3,925 84 328 -576
2017-11-21 19:19:08 GMT 55.15383 -1.60009 3,925 84 330 -576
2017-11-21 19:19:05 GMT 55.15365 -1.60409 3,975 84 332 -448
2017-11-21 19:19:00 GMT 55.15292 -1.61887 4,000 85 333 0
2017-11-21 19:18:56 GMT 55.15230 -1.63080 4,000 85 333 0
2017-11-21 19:18:47 GMT 55.15118 -1.65369 4,025 84 333 -128
2017-11-21 19:18:45 GMT 55.15095 -1.65785 4,025 84 333 -128
2017-11-21 19:18:39 GMT 55.15008 -1.67453 4,075 84 328 -256
2017-11-21 19:18:35 GMT 55.14950 -1.68549 4,100 84 324 192
2017-11-21 19:18:31 GMT 55.14871 -1.69965 4,075 84 327 -64
2017-11-21 19:18:27 GMT 55.14835 -1.70652 4,075 84 330 -64
2017-11-21 19:18:25 GMT 55.14802 -1.71220 4,050 84 337 0
2017-11-21 19:18:21 GMT 55.14743 -1.72324 4,050 84 339 0
2017-11-21 19:18:17 GMT 55.14681 -1.73451 4,050 84 352 64
2017-11-21 19:18:15 GMT 55.14653 -1.73967 4,025 85 362 128
2017-11-21 19:18:12 GMT 55.14606 -1.74941 4,025 85 373 192
2017-11-21 19:18:08 GMT 55.14555 -1.76040 4,000 85 377 192
2017-11-21 19:18:04 GMT 55.14508 -1.77121 4,000 86 389 192
2017-11-21 19:17:58 GMT 55.14457 -1.79244 4,000 89 401 -384
2017-11-21 19:17:54 GMT 55.14448 -1.80309 4,050 90 402 -448
2017-11-21 19:17:47 GMT 55.14487 -1.82777 4,150 93 399 -896
2017-11-21 19:17:45 GMT 55.14518 -1.83597 4,175 94 399 -1152
2017-11-21 19:17:43 GMT 55.14537 -1.84037 4,200 94 399 -1152
2017-11-21 19:17:38 GMT 55.14597 -1.85428 4,300 94 397 -1472
2017-11-21 19:17:34 GMT 55.14662 -1.87084 4,425 94 398 -1856
2017-11-21 19:17:27 GMT 55.14752 -1.89223 4,675 94 402 -2240
2017-11-21 19:17:24 GMT 55.14792 -1.90205 4,800 94 403 -2240
2017-11-21 19:17:22 GMT 55.14812 -1.90677 4,850 94 403 -2368
2017-11-21 19:17:16 GMT 55.14890 -1.92560 5,100 93 405 -2816
2017-11-21 19:17:13 GMT 55.14937 -1.93784 5,275 93 406 -2944
2017-11-21 19:17:08 GMT 55.14995 -1.95274 5,500 93 407 -3008
2017-11-21 19:17:06 GMT 55.15022 -1.95993 5,625 93 407 -3072
2017-11-21 19:17:03 GMT 55.15064 -1.97051 5,800 93 408 -3264
2017-11-21 19:16:58 GMT 55.15123 -1.98659 6,075 93 408 -3968
2017-11-21 19:16:56 GMT 55.15146 -1.99302 6,225 93 407 -4416
2017-11-21 19:16:54 GMT 55.15183 -2.00359 6,475 93 407 -4736
2017-11-21 19:16:52 GMT 55.15188 -2.00484 6,500 93 407 -4800
2017-11-21 19:16:45 GMT 55.15262 -2.02789 7,075 93 408 -5248
2017-11-21 19:16:42 GMT 55.15304 -2.03938 7,375 93 409 -5120
2017-11-21 19:16:38 GMT 55.15352 -2.05436 7,750 93 410 -4736
2017-11-21 19:16:35 GMT 55.15374 -2.06085 7,925 93 410 -4480
2017-11-21 19:16:33 GMT 55.15397 -2.06876 8,075 93 411 -4160
2017-11-21 19:16:30 GMT 55.15425 -2.07658 8,225 93 414 -3712
2017-11-21 19:16:27 GMT 55.15472 -2.08907 8,475 93 414 -3648
2017-11-21 19:16:25 GMT 55.15503 -2.09758 8,625 93 416 -3200
2017-11-21 19:16:23 GMT 55.15521 -2.10154 8,675 93 418 -2816
2017-11-21 19:16:21 GMT 55.15553 -2.11026 8,775 94 420 -2432
2017-11-21 19:16:17 GMT 55.15617 -2.12618 8,925 94 426 -896
2017-11-21 19:16:13 GMT 55.15677 -2.14009 8,975 94 427 -640
2017-11-21 19:16:11 GMT 55.15691 -2.14371 8,975 94 429 -384
2017-11-21 19:16:07 GMT 55.15745 -2.15712 9,000 94 429 -64
2017-11-21 19:16:04 GMT 55.15789 -2.16697 9,000 94 429 128
2017-11-21 19:16:04 GMT 55.15789 -2.16697 9,000 94 429 128
2017-11-21 19:16:02 GMT 55.15812 -2.17246 9,000 93 428 128
2017-11-21 19:16:02 GMT 55.15812 -2.17246 9,000 93 428 128
2017-11-21 19:16:00 GMT 55.15837 -2.17957 8,975 93 429 128
2017-11-21 19:15:56 GMT 55.15891 -2.19385 8,975 92 430 128
2017-11-21 19:15:54 GMT 55.15910 -2.19910 8,975 88 432 128
2017-11-21 19:15:52 GMT 55.15933 -2.20809 8,975 91 431 128
2017-11-21 19:15:52 GMT 55.15933 -2.20809 8,975 91 431 192
2017-11-21 19:15:49 GMT 55.15956 -2.21875 8,950 90 432 192
2017-11-21 19:15:45 GMT 55.15956 -2.23055 8,950 87 432 128
2017-11-21 19:15:41 GMT 55.15897 -2.24969 8,950 83 431 -64
2017-11-21 19:15:39 GMT 55.15877 -2.25378 8,950 82 430 -128
2017-11-21 19:15:37 GMT 55.15814 -2.26221 8,950 79 429 -640
2017-11-21 19:15:35 GMT 55.15787 -2.26561 8,975 80 430 -320
2017-11-21 19:15:33 GMT 55.15713 -2.27352 9,000 79 429 -640
2017-11-21 19:15:31 GMT 55.15659 -2.27861 9,000 79 427 -768
2017-11-21 19:15:29 GMT 55.15567 -2.28709 9,050 78 420 -1088
2017-11-21 19:15:26 GMT 55.15411 -2.30091 9,150 78 420 -1152
2017-11-21 19:15:23 GMT 55.15356 -2.30592 9,175 78 413 -1216
2017-11-21 19:15:21 GMT 55.15288 -2.31189 9,200 78 411 -1216
2017-11-21 19:15:19 GMT 55.15165 -2.32278 9,275 78 404 -1408
2017-11-21 19:15:17 GMT 55.15128 -2.32611 9,300 78 403 -1664
2017-11-21 19:15:15 GMT 55.15031 -2.33443 9,375 78 401 -1920
2017-11-21 19:15:11 GMT 55.14899 -2.34582 9,500 78 398 -2240
2017-11-21 19:15:09 GMT 55.14788 -2.35548 9,600 78 397 -2496
2017-11-21 19:15:05 GMT 55.14670 -2.36570 9,750 78 395 -2944
2017-11-21 19:15:02 GMT 55.14578 -2.37371 9,875 78 395 -3072
2017-11-21 19:15:00 GMT 55.14522 -2.37871 9,975 78 392 -3200
2017-11-21 19:14:58 GMT 55.14434 -2.38678 10,125 79 391 -3456
2017-11-21 19:14:55 GMT 55.14322 -2.39702 10,325 79 388 -3968
2017-11-21 19:14:53 GMT 55.14253 -2.40302 10,450 79 387 -4288
2017-11-21 19:14:51 GMT 55.14157 -2.41231 10,650 79 388 -4032
2017-11-21 19:14:47 GMT 55.14075 -2.41949 10,800 79 388 -3648
2017-11-21 19:14:45 GMT 55.13974 -2.42919 11,000 79 389 -3520
2017-11-21 19:14:40 GMT 55.13833 -2.44229 11,250 79 391 -3392
2017-11-21 19:14:37 GMT 55.13708 -2.45378 11,450 78 392 -3264
2017-11-21 19:14:34 GMT 55.13619 -2.46152 11,575 78 393 -3200
2017-11-21 19:14:30 GMT 55.13475 -2.47411 11,775 78 394 -3200
2017-11-21 19:14:26 GMT 55.13374 -2.48315 11,950 78 396 -3456
2017-11-21 19:14:24 GMT 55.13264 -2.49220 12,100 78 397 -3456
2017-11-21 19:14:21 GMT 55.13154 -2.50147 12,275 78 399 -3392
2017-11-21 19:14:19 GMT 55.13095 -2.50666 12,375 78 398 -3392
2017-11-21 19:14:17 GMT 55.12958 -2.51797 12,575 77 400 -3328
2017-11-21 19:14:16 GMT 55.12958 -2.51797 12,575 77 401 -3328
2017-11-21 19:14:14 GMT 55.12880 -2.52427 12,675 77 401 -3392
2017-11-21 19:14:12 GMT 55.12811 -2.52992 12,775 77 402 -3392
2017-11-21 19:14:10 GMT 55.12706 -2.53816 12,925 77 403 -3328
2017-11-21 19:14:06 GMT 55.12532 -2.55149 13,175 75 405 -3648
2017-11-21 19:14:04 GMT 55.12446 -2.55765 13,300 75 405 -3648
2017-11-21 19:14:01 GMT 55.12322 -2.56603 13,450 72 407 -3648
2017-11-21 19:13:59 GMT 55.12253 -2.57048 13,550 72 407 -3648
2017-11-21 19:13:56 GMT 55.12041 -2.58220 13,775 68 408 -3712
2017-11-21 19:13:54 GMT 55.11896 -2.58881 13,900 67 409 -3648
2017-11-21 19:13:52 GMT 55.11827 -2.59178 13,950 64 410 -3584
2017-11-21 19:13:50 GMT 55.11664 -2.59810 14,075 54 413 -3584
2017-11-21 19:13:48 GMT 55.11492 -2.60401 14,200 59 412 -3520
2017-11-21 19:13:45 GMT 55.11150 -2.61426 14,400 56 413 -3584
2017-11-21 19:13:42 GMT 55.10924 -2.62016 14,550 52 414 -3456
2017-11-21 19:13:40 GMT 55.10565 -2.62840 14,725 47 414 -3328
2017-11-21 19:13:38 GMT 55.10399 -2.63187 14,800 47 414 -3328
2017-11-21 19:13:35 GMT 55.10021 -2.63922 14,950 44 415 -3200
2017-11-21 19:13:33 GMT 55.09616 -2.64609 15,100 38 415 -3392
2017-11-21 19:13:30 GMT 55.09304 -2.65078 15,225 20 402 -4032
2017-11-21 19:13:28 GMT 55.09085 -2.65403 15,325 34 413 -4032
2017-11-21 19:13:24 GMT 55.08317 -2.66319 15,675 29 410 -4288
2017-11-21 19:13:22 GMT 55.08014 -2.66637 15,775 27 410 -4096
2017-11-21 19:13:20 GMT 55.07744 -2.66879 15,900 18 400 -3904
2017-11-21 19:13:18 GMT 55.07391 -2.67178 16,025 23 406 -4032
2017-11-21 19:13:14 GMT 55.06650 -2.67719 16,300 11 393 -2816
2017-11-21 19:13:12 GMT 55.06320 -2.67913 16,425 15 397 -3136
2017-11-21 19:13:10 GMT 55.05887 -2.68125 16,550 9 391 -2880
2017-11-21 19:13:08 GMT 55.05615 -2.68252 16,600 9 391 -2880
2017-11-21 19:13:06 GMT 55.05268 -2.68366 16,700 5 387 -3136
2017-11-21 19:13:04 GMT 55.04700 -2.68516 16,875 4 385 -3136
2017-11-21 19:13:02 GMT 55.04523 -2.68541 16,925 2 381 -3264
2017-11-21 19:12:59 GMT 55.04073 -2.68575 17,050 359 376 -3072
2017-11-21 19:12:57 GMT 55.03769 -2.68582 17,150 356 371 -2944
2017-11-21 19:12:54 GMT 55.03226 -2.68535 17,300 354 367 -2944
2017-11-21 19:12:52 GMT 55.02730 -2.68433 17,450 350 362 -2624
2017-11-21 19:12:48 GMT 55.02111 -2.68233 17,600 345 353 -2496
2017-11-21 19:12:45 GMT 55.01553 -2.67950 17,750 341 346 -2176
2017-11-21 19:12:43 GMT 55.01399 -2.67858 17,775 339 341 -1792
2017-11-21 19:12:42 GMT 55.01176 -2.67717 17,825 340 344 -2048
2017-11-21 19:12:40 GMT 55.00836 -2.67469 17,875 335 334 -1280
2017-11-21 19:12:37 GMT 55.00552 -2.67226 17,925 332 329 -1024
2017-11-21 19:12:35 GMT 55.00149 -2.66838 17,975 328 321 -704
2017-11-21 19:12:33 GMT 54.99905 -2.66560 18,000 325 317 -448
2017-11-21 19:12:32 GMT 54.99905 -2.66560 18,000 325 317 -448
2017-11-21 19:12:30 GMT 54.99669 -2.66273 18,000 322 312 -192
2017-11-21 19:12:28 GMT 54.99486 -2.66031 18,000 317 304 0
2017-11-21 19:12:26 GMT 54.99216 -2.65611 18,000 316 301 64
2017-11-21 19:12:24 GMT 54.99016 -2.65270 18,025 311 292 -64
2017-11-21 19:12:22 GMT 54.98746 -2.64737 18,025 294 263 256
2017-11-21 19:12:19 GMT 54.98593 -2.64391 18,025 303 277 0
2017-11-21 19:12:17 GMT 54.98383 -2.63825 18,025 294 263 256
2017-11-21 19:12:15 GMT 54.98318 -2.63640 18,025 290 259 320
2017-11-21 19:12:13 GMT 54.98177 -2.63171 18,025 292 261 256
2017-11-21 19:12:11 GMT 54.98057 -2.62656 18,000 288 256 320
2017-11-21 19:12:09 GMT 54.98012 -2.62452 18,000 285 253 192
2017-11-21 19:12:06 GMT 54.97911 -2.61830 18,000 277 250 0
2017-11-21 19:12:04 GMT 54.97861 -2.61308 18,000 275 249 0
2017-11-21 19:12:01 GMT 54.97833 -2.60742 18,000 269 250 -64
2017-11-21 19:12:00 GMT 54.97833 -2.60742 18,000 269 249 -64
2017-11-21 19:11:58 GMT 54.97829 -2.60231 18,000 268 250 0
2017-11-21 19:11:56 GMT 54.97838 -2.59810 18,000 268 251 0
2017-11-21 19:11:54 GMT 54.97852 -2.59310 18,000 268 252 0
2017-11-21 19:11:52 GMT 54.97857 -2.59094 18,000 268 253 0
2017-11-21 19:11:50 GMT 54.97870 -2.58628 18,000 268 254 0
2017-11-21 19:11:48 GMT 54.97880 -2.58220 18,000 268 259 0
2017-11-21 19:11:46 GMT 54.97889 -2.57837 18,000 268 257 0
2017-11-21 19:11:44 GMT 54.97897 -2.57492 18,000 268 257 0
2017-11-21 19:11:40 GMT 54.97931 -2.56323 18,000 268 261 0
2017-11-21 19:11:38 GMT 54.97939 -2.55933 18,000 268 263 0
2017-11-21 19:11:34 GMT 54.97961 -2.55158 18,000 268 266 -64
2017-11-21 19:11:32 GMT 54.97968 -2.54825 18,000 268 267 -64
2017-11-21 19:11:29 GMT 54.97984 -2.54212 18,000 268 272 -64
2017-11-21 19:11:27 GMT 54.97998 -2.53776 18,000 268 272 -64
2017-11-21 19:11:25 GMT 54.98006 -2.53351 18,000 268 275 -64
2017-11-21 19:11:22 GMT 54.98025 -2.52661 18,025 268 279 -64
2017-11-21 19:11:19 GMT 54.98043 -2.52086 18,025 268 282 -64
2017-11-21 19:11:17 GMT 54.98061 -2.51346 18,025 268 286 -64
2017-11-21 19:11:15 GMT 54.98071 -2.50900 18,025 268 287 0
2017-11-21 19:11:11 GMT 54.98099 -2.49939 18,000 268 292 0
2017-11-21 19:11:08 GMT 54.98103 -2.49589 18,000 268 295 0
2017-11-21 19:11:06 GMT 54.98126 -2.48816 18,000 268 299 64
2017-11-21 19:11:04 GMT 54.98131 -2.48566 18,000 268 304 64
2017-11-21 19:11:02 GMT 54.98145 -2.48000 18,000 268 304 64
2017-11-21 19:11:00 GMT 54.98154 -2.47612 18,000 268 306 64
2017-11-21 19:10:58 GMT 54.98172 -2.46902 17,975 268 309 64
2017-11-21 19:10:55 GMT 54.98182 -2.46368 17,975 268 313 64
2017-11-21 19:10:53 GMT 54.98195 -2.45981 17,975 268 314 64
2017-11-21 19:10:51 GMT 54.98215 -2.45187 17,975 268 318 64
2017-11-21 19:10:49 GMT 54.98224 -2.44629 17,975 268 320 64
2017-11-21 19:10:47 GMT 54.98234 -2.44346 17,975 268 321 64
2017-11-21 19:10:44 GMT 54.98252 -2.43580 17,975 268 323 0
2017-11-21 19:10:42 GMT 54.98273 -2.42758 17,975 268 323 64
2017-11-21 19:10:40 GMT 54.98275 -2.42490 17,975 268 323 64
2017-11-21 19:10:37 GMT 54.98294 -2.41816 17,975 268 322 64
2017-11-21 19:10:36 GMT 54.98305 -2.41417 17,975 268 322 64
2017-11-21 19:10:35 GMT 54.98305 -2.41417 17,975 268 321 64
2017-11-21 19:10:33 GMT 54.98318 -2.40770 17,975 268 320 192
2017-11-21 19:10:30 GMT 54.98345 -2.39752 17,975 268 316 448
2017-11-21 19:10:26 GMT 54.98373 -2.38611 17,925 268 310 832
2017-11-21 19:10:24 GMT 54.98383 -2.38137 17,900 268 310 832
2017-11-21 19:10:24 GMT 54.98378 -2.38371 17,900 268 310 832
2017-11-21 19:10:22 GMT 54.98387 -2.37999 17,900 268 309 832
2017-11-21 19:10:20 GMT 54.98401 -2.37363 17,850 268 306 896
2017-11-21 19:10:18 GMT 54.98415 -2.36860 17,825 268 304 896
2017-11-21 19:10:16 GMT 54.98425 -2.36506 17,800 268 302 896
2017-11-21 19:10:15 GMT 54.98428 -2.36368 17,775 268 299 896
2017-11-21 19:10:13 GMT 54.98442 -2.35762 17,750 268 300 896
2017-11-21 19:10:13 GMT 54.98442 -2.35762 17,750 268 299 896
2017-11-21 19:10:11 GMT 54.98460 -2.34938 17,700 268 296 832
2017-11-21 19:10:09 GMT 54.98465 -2.34704 17,675 268 295 832
2017-11-21 19:10:06 GMT 54.98485 -2.34025 17,650 268 293 832
2017-11-21 19:10:04 GMT 54.98502 -2.33290 17,600 268 289 832
2017-11-21 19:10:02 GMT 54.98506 -2.33056 17,575 268 287 896
2017-11-21 19:10:00 GMT 54.98518 -2.32694 17,550 268 286 960
2017-11-21 19:09:58 GMT 54.98524 -2.32320 17,525 268 285 960
2017-11-21 19:09:56 GMT 54.98538 -2.31698 17,475 268 281 1152
2017-11-21 19:09:54 GMT 54.98550 -2.31212 17,450 268 279 1344
2017-11-21 19:09:51 GMT 54.98566 -2.30729 17,400 268 277 1472
2017-11-21 19:09:51 GMT 54.98566 -2.30729 17,400 268 275 1728
2017-11-21 19:09:48 GMT 54.98579 -2.30067 17,300 268 275 1792
2017-11-21 19:09:46 GMT 54.98593 -2.29517 17,225 268 273 1920
2017-11-21 19:09:44 GMT 54.98607 -2.28944 17,150 268 272 2048
2017-11-21 19:09:41 GMT 54.98620 -2.28432 17,075 268 270 2240
2017-11-21 19:09:39 GMT 54.98634 -2.27825 16,950 268 269 2496
2017-11-21 19:09:35 GMT 54.98653 -2.27018 16,800 268 268 2752
2017-11-21 19:09:32 GMT 54.98666 -2.26254 16,625 268 268 2944
2017-11-21 19:09:30 GMT 54.98671 -2.26125 16,600 268 268 2944
2017-11-21 19:09:28 GMT 54.98685 -2.25608 16,475 268 268 3072
2017-11-21 19:09:25 GMT 54.98694 -2.25026 16,350 268 268 3136
2017-11-21 19:09:23 GMT 54.98708 -2.24380 16,175 268 273 3200
2017-11-21 19:09:21 GMT 54.98722 -2.23880 16,050 268 269 3328
2017-11-21 19:09:18 GMT 54.98735 -2.23241 15,900 268 269 3456
2017-11-21 19:09:15 GMT 54.98744 -2.22788 15,775 268 269 3584
2017-11-21 19:09:12 GMT 54.98758 -2.22118 15,575 268 270 3712
2017-11-21 19:09:10 GMT 54.98769 -2.21608 15,425 268 271 3712
2017-11-21 19:09:10 GMT 54.98764 -2.21799 15,475 268 271 3712
2017-11-21 19:09:08 GMT 54.98774 -2.21391 15,375 268 272 3648
2017-11-21 19:09:06 GMT 54.98785 -2.20858 15,225 268 272 3456
2017-11-21 19:09:04 GMT 54.98799 -2.20421 15,100 268 273 3328
2017-11-21 19:09:02 GMT 54.98806 -2.19943 15,000 268 273 3136
2017-11-21 19:09:02 GMT 54.98806 -2.19943 15,000 268 273 3200
2017-11-21 19:08:59 GMT 54.98822 -2.19298 14,825 268 273 3136
2017-11-21 19:08:57 GMT 54.98831 -2.18991 14,750 268 273 3072
2017-11-21 19:08:55 GMT 54.98840 -2.18491 14,650 268 272 2944
2017-11-21 19:08:53 GMT 54.98853 -2.18062 14,550 268 270 2560
2017-11-21 19:08:50 GMT 54.98872 -2.17182 14,375 268 270 2560
2017-11-21 19:08:48 GMT 54.98882 -2.16722 14,275 268 270 2560
2017-11-21 19:08:46 GMT 54.98890 -2.16281 14,200 268 269 2432
2017-11-21 19:08:44 GMT 54.98895 -2.16156 14,175 268 268 2432
2017-11-21 19:08:41 GMT 54.98909 -2.15469 14,050 268 266 2368
2017-11-21 19:08:39 GMT 54.98927 -2.14783 13,925 268 265 2496
2017-11-21 19:08:36 GMT 54.98932 -2.14468 13,850 268 264 2688
2017-11-21 19:08:34 GMT 54.98946 -2.13934 13,725 268 263 2944
2017-11-21 19:08:30 GMT 54.98960 -2.13118 13,525 268 263 3584
2017-11-21 19:08:28 GMT 54.98973 -2.12585 13,375 268 262 3584
2017-11-21 19:08:27 GMT 54.98974 -2.12486 13,350 268 262 3584
2017-11-21 19:08:25 GMT 54.98988 -2.11961 13,200 268 263 3584
2017-11-21 19:08:23 GMT 54.98996 -2.11568 13,100 268 263 3584
2017-11-21 19:08:19 GMT 54.99020 -2.10505 12,800 268 263 3328
2017-11-21 19:08:17 GMT 54.99023 -2.10178 12,700 268 263 3200
2017-11-21 19:08:16 GMT 54.99023 -2.10178 12,700 268 262 2944
2017-11-21 19:08:16 GMT 54.99023 -2.10178 12,700 268 263 3200
2017-11-21 19:08:13 GMT 54.99037 -2.09564 12,575 268 262 3008
2017-11-21 19:08:11 GMT 54.99051 -2.08918 12,425 268 261 2880
2017-11-21 19:08:10 GMT 54.99051 -2.08918 12,425 268 261 2880
2017-11-21 19:08:07 GMT 54.99069 -2.08183 12,250 268 259 2816
2017-11-21 19:08:04 GMT 54.99081 -2.07550 12,100 268 257 2624
2017-11-21 19:08:01 GMT 54.99099 -2.06843 11,975 268 256 2496
2017-11-21 19:07:59 GMT 54.99101 -2.06648 11,925 268 254 2496
2017-11-21 19:07:57 GMT 54.99113 -2.06168 11,825 268 253 2624
2017-11-21 19:07:54 GMT 54.99123 -2.05619 11,725 268 251 2752
2017-11-21 19:07:52 GMT 54.99133 -2.05210 11,625 268 250 2816
2017-11-21 19:07:50 GMT 54.99146 -2.04579 11,475 268 248 2880
2017-11-21 19:07:48 GMT 54.99160 -2.04138 11,375 268 247 2944
2017-11-21 19:07:46 GMT 54.99165 -2.03812 11,300 268 247 2944
2017-11-21 19:07:43 GMT 54.99179 -2.03094 11,100 268 245 3072
2017-11-21 19:07:39 GMT 54.99193 -2.02573 10,975 268 244 3136
2017-11-21 19:07:36 GMT 54.99206 -2.01995 10,825 268 243 3136
2017-11-21 19:07:34 GMT 54.99216 -2.01516 10,700 269 241 3072
2017-11-21 19:07:32 GMT 54.99225 -2.01139 10,600 269 242 3136
2017-11-21 19:07:27 GMT 54.99239 -2.00282 10,375 269 240 2944
2017-11-21 19:07:25 GMT 54.99248 -1.99868 10,275 269 240 2816
2017-11-21 19:07:23 GMT 54.99257 -1.99378 10,150 269 238 2880
2017-11-21 19:07:21 GMT 54.99258 -1.99194 10,100 269 238 2880
2017-11-21 19:07:17 GMT 54.99276 -1.98112 9,825 269 236 3136
2017-11-21 19:07:14 GMT 54.99286 -1.97488 9,650 269 235 3264
2017-11-21 19:07:12 GMT 54.99289 -1.97285 9,600 269 235 3456
2017-11-21 19:07:08 GMT 54.99295 -1.96639 9,400 270 235 3520
2017-11-21 19:07:06 GMT 54.99303 -1.96114 9,225 270 235 3648
2017-11-21 19:07:04 GMT 54.99303 -1.95831 9,150 270 235 3712
2017-11-21 19:07:01 GMT 54.99307 -1.95306 8,950 270 236 3840
2017-11-21 19:06:57 GMT 54.99314 -1.94649 8,725 270 236 3840
2017-11-21 19:06:55 GMT 54.99318 -1.94175 8,575 270 237 3968
2017-11-21 19:06:53 GMT 54.99318 -1.93684 8,400 270 238 3968
2017-11-21 19:06:51 GMT 54.99318 -1.93401 8,300 270 238 3968
2017-11-21 19:06:48 GMT 54.99321 -1.92754 8,075 270 239 3904
2017-11-21 19:06:45 GMT 54.99326 -1.92220 7,900 270 240 3904
2017-11-21 19:06:41 GMT 54.99328 -1.91520 7,650 270 241 3904
2017-11-21 19:06:36 GMT 54.99330 -1.90637 7,375 270 241 3712
2017-11-21 19:06:34 GMT 54.99335 -1.90136 7,200 270 241 3648
2017-11-21 19:06:32 GMT 54.99337 -1.89722 7,075 270 241 3584
2017-11-21 19:06:29 GMT 54.99337 -1.89198 6,925 270 240 3456
2017-11-21 19:06:27 GMT 54.99339 -1.88803 6,800 270 240 3264
2017-11-21 19:06:25 GMT 54.99348 -1.88206 6,650 270 239 3136
2017-11-21 19:06:22 GMT 54.99348 -1.87777 6,525 269 238 3136
2017-11-21 19:06:17 GMT 54.99365 -1.86834 6,275 269 236 3136
2017-11-21 19:06:14 GMT 54.99371 -1.86202 6,100 268 234 3072
2017-11-21 19:06:11 GMT 54.99381 -1.85782 6,000 268 233 3072
2017-11-21 19:06:06 GMT 54.99408 -1.84885 5,725 266 229 3264
2017-11-21 19:06:03 GMT 54.99430 -1.84312 5,550 264 228 3328
2017-11-21 19:06:01 GMT 54.99454 -1.83932 5,450 262 227 3136
2017-11-21 19:05:56 GMT 54.99541 -1.83027 5,200 252 224 2816
2017-11-21 19:05:54 GMT 54.99651 -1.82446 5,050 244 222 2880
2017-11-21 19:05:49 GMT 54.99843 -1.81751 4,825 242 221 2880
2017-11-21 19:05:46 GMT 54.99985 -1.81347 4,700 238 219 2880
2017-11-21 19:05:43 GMT 55.00127 -1.80959 4,575 238 216 2880
2017-11-21 19:05:41 GMT 55.00246 -1.80636 4,475 239 213 2752
2017-11-21 19:05:36 GMT 55.00516 -1.79885 4,250 239 207 2816
2017-11-21 19:05:31 GMT 55.00781 -1.79126 4,000 240 201 2624
2017-11-21 19:05:26 GMT 55.01013 -1.78428 3,800 241 196 2432
2017-11-21 19:05:22 GMT 55.01161 -1.77987 3,675 241 193 2176
2017-11-21 19:05:21 GMT 55.01204 -1.77854 3,625 241 193 2176
2017-11-21 19:05:15 GMT 55.01469 -1.77030 3,400 241 183 2176
2017-11-21 19:05:12 GMT 55.01595 -1.76647 3,300 241 179 2048
2017-11-21 19:05:05 GMT 55.01879 -1.75748 3,075 242 169 1280
2017-11-21 19:05:02 GMT 55.02004 -1.75340 3,025 243 162 1472
2017-11-21 19:04:55 GMT 55.02237 -1.74578 2,800 243 157 1856
2017-11-21 19:04:51 GMT 55.02358 -1.74158 2,700 244 153 1920
2017-11-21 19:04:44 GMT 55.02566 -1.73422 2,450 245 148 2112
2017-11-21 19:04:41 GMT 55.02672 -1.73059 2,350 244 145 1856
2017-11-21 19:04:34 GMT 55.02869 -1.72348 2,125 244 139 2176
2017-11-21 19:04:24 GMT 55.03159 -1.71304 1,625 245 139 2880
2017-11-21 19:04:14 GMT 55.03433 -1.70296 1,150 245 142 2944
2017-11-21 19:04:04 GMT 55.03720 -1.69238 750 245 140 768
2017-11-21 19:03:55 GMT 55.03972 -1.68309 775 245 93 64
2017-11-21 19:03:51 GMT 55.04031 -1.68091 775 245 89 0
2017-11-21 19:03:43 GMT 55.04148 -1.67643 0 244 50 0
2017-11-21 19:03:33 GMT 55.04211 -1.67413 0 230 15 0
2017-11-21 19:03:23 GMT 55.04268 -1.67364 0 163 16 0
2017-11-21 19:03:13 GMT 55.04328 -1.67430 0 112 18 0
2017-11-21 19:03:02 GMT 55.04337 -1.67591 0 78 24 0
2017-11-21 19:02:52 GMT 55.04295 -1.67777 0 64 29 0
2017-11-21 19:02:42 GMT 55.04237 -1.67994 0 64 30 0
2017-11-21 19:02:31 GMT 55.04176 -1.68234 0 64 28 0
2017-11-21 19:02:20 GMT 55.04118 -1.68442 0 64 27 0
2017-11-21 19:02:11 GMT 55.04070 -1.68621 0 67 26 0
2017-11-21 19:02:01 GMT 55.04024 -1.68802 0 64 24 0
2017-11-21 19:01:51 GMT 55.03978 -1.68971 0 64 25 0
2017-11-21 19:01:40 GMT 55.03925 -1.69173 0 64 30 0
2017-11-21 19:01:30 GMT 55.03866 -1.69393 0 67 29 0
2017-11-21 19:01:20 GMT 55.03818 -1.69606 0 73 26 0
2017-11-21 19:01:10 GMT 55.03788 -1.69803 0 81 24 0
2017-11-21 19:01:05 GMT 55.03781 -1.69894 0 84 23 0
2017-11-21 19:00:59 GMT 55.03776 -1.69993 0 90 22 0
2017-11-21 19:00:59 GMT 55.03776 -1.69993 0 90 22 0
2017-11-21 19:00:49 GMT 55.03776 -1.70163 0 92 17 0
2017-11-21 19:00:49 GMT 55.03776 -1.70155 0 92 17 0
2017-11-21 19:00:38 GMT 55.03782 -1.70292 0 104 11 0
2017-11-21 19:00:29 GMT 55.03795 -1.70359 0 140 10 0
2017-11-21 19:00:26 GMT 55.03804 -1.70375 0 151 10 0
2017-11-21 19:00:19 GMT 55.03830 -1.70394 0 182 9 0
2017-11-21 19:00:13 GMT 55.03858 -1.70392 0 185 9 0
2017-11-21 19:00:08 GMT 55.03872 -1.70391 0 185 9 0
2017-11-21 18:59:58 GMT 55.03908 -1.70385 0 185 7 0
2017-11-21 18:59:44 GMT 55.03936 -1.70382 0 196 0 0
2017-11-21 18:59:34 GMT 55.03939 -1.70379 0 196 0 0
2017-11-21 18:59:24 GMT 55.03939 -1.70380 0 196 0 0
2017-11-21 18:59:14 GMT 55.03939 -1.70379 0 196 0 0
2017-11-21 18:58:59 GMT 55.03939 -1.70379 0 196 0 0
2017-11-21 18:58:54 GMT 55.03939 -1.70380 0 196 0 0
2017-11-21 18:58:44 GMT 55.03939 -1.70379 0 196 0 0
2017-11-21 18:58:34 GMT 55.03939 -1.70380 0 196 0 0
2017-11-21 18:58:24 GMT 55.03939 -1.70379 0 196 0 0
2017-11-21 18:58:14 GMT 55.03939 -1.70379 0 196 0 0
2017-11-21 18:58:04 GMT 55.03939 -1.70380 0 196 0 0
2017-11-21 18:57:55 GMT 55.03939 -1.70379 0 196 0 0
2017-11-21 18:57:45 GMT 55.03939 -1.70380 0 196 0 0
2017-11-21 18:57:15 GMT 55.03920 -1.70398 0 213 3 0
2017-11-21 18:56:44 GMT 55.03912 -1.70467 0 267 3 0
2017-11-21 18:56:13 GMT 55.03916 -1.70542 0 272 2 0

Making use of Plane Finder data

You are free to use the raw flight data, aircraft information and images provided in this report for your own purposes provided the data is correctly attributed to Plane Finder. We ask that you please credit Plane Finder and link to planefinder.net in close proximity to the content.

Optionally one of the following logos (no smaller then 150x24px) can be used and must link to planefinder.net

Embedding the Plane Finder map

You are welcome to embed the Plane Finder playback map on your website to offer visitors a more interactive experience. We suggest using the following HTML code:

<iframe src="//planefinder.net/data/report/U2553-G-EZRG-7700-squawk-2017-11-21/map" width="800" height="600" seamless="seamless"></iframe>

Where our data comes from

Plane Finder has a global network of data feeds and antenna radars that receive data broadcast directly from aircraft. The primary technologies used are ADS-B and MLAT. We also show feeds from the FAA and a FLARM glider feed.

Click here to find out more about the Plane Finder network.

How we collect our data